Data for 12/25/2011

Time Sea-Level Adjusted Pressure Absolute Pressure Temperature Relative Humidity Dew Point Precipitation   
(mb) (inHg) (mb) (inHg) (C) (F) (%) (C) (F) (mm) (in)
00:01 1032 30.47 862 25.45 -3 26.7 84 -5.3 22.5 -91.2 -3.591
00:02 1032 30.47 862 25.45 -3.1 26.4 86 -5.2 22.7 -91.2 -3.591
00:03 1032 30.47 862 25.45 -3.2 26.2 85 -5.5 22.1 -91.2 -3.591
00:04 1032 30.47 862 25.45 -3.4 25.9 84 -5.8 21.6 -91.2 -3.591
00:05 1032 30.47 862 25.45 -3.6 25.5 85 -5.8 21.6 -91.2 -3.591
00:06 1032 30.47 862 25.45 -3.7 25.3 85 -5.9 21.4 -91.2 -3.591
00:07 1032 30.47 862 25.45 -3.8 25.1 85 -6 21.2 -91.3 -3.594
00:08 1032 30.47 862 25.45 -3.9 25 85 -6.1 21.1 -91.3 -3.594
00:09 1032 30.47 862 25.45 -3.9 24.9 85 -6.1 21 -91.3 -3.594
00:10 1032 30.47 862 25.45 -3.9 24.9 85 -6.1 21 -91.3 -3.594
00:11 1032 30.47 862 25.45 -4 24.9 85 -6.2 20.9 -91.3 -3.594
00:12 1032 30.47 861 25.43 -4 24.8 85 -6.2 20.8 -91.3 -3.594
00:13 1032 30.47 861 25.43 -4 24.8 82 -6.6 20.2 -91.3 -3.594
00:14 1032 30.47 861 25.43 -4.2 24.5 82 -6.9 19.6 -91.3 -3.594
00:15 1032 30.47 861 25.43 -4.4 24 82 -7.1 19.2 -91.3 -3.594
00:16 1032 30.47 861 25.43 -4.7 23.5 82 -7.3 18.8 -91.3 -3.594
00:17 1032 30.47 861 25.43 -5 22.9 81 -7.8 18 -91.3 -3.594
00:18 1032 30.47 861 25.43 -5.4 22.2 82 -8.1 17.5 -91.3 -3.594
00:19 1032 30.47 861 25.43 -5.7 21.7 83 -8.1 17.3 -91.3 -3.594
00:20 1032 30.47 861 25.43 -6 21.3 85 -8 17.6 -91.3 -3.594
00:21 1032 30.47 861 25.43 -6.1 21 84 -8.4 16.9 -91.3 -3.594
00:22 1032 30.47 861 25.43 -6.3 20.6 85 -8.5 16.8 -91.4 -3.598
00:23 1032 30.47 861 25.43 -6.6 20.1 85 -8.8 16.2 -91.4 -3.598
00:24 1032 30.47 861 25.43 -6.8 19.8 86 -8.7 16.3 -91.4 -3.598
00:25 1032 30.47 861 25.43 -6.9 19.6 87 -8.7 16.3 -91.4 -3.598
00:26 1032 30.47 861 25.43 -7 19.4 88 -8.7 16.3 -91.4 -3.598
00:27 1032 30.47 861 25.43 -7 19.5 89 -8.4 16.8 -91.4 -3.598
00:28 1032 30.47 861 25.43 -6.8 19.8 91 -8 17.7 -91.4 -3.598
00:29 1032 30.47 861 25.43 -6.4 20.5 91 -7.6 18.3 -91.4 -3.598
00:30 1032 30.47 861 25.43 -6 21.2 89 -7.6 18.3 -91.4 -3.598
00:31 1032 30.47 861 25.43 -5.8 21.5 87 -7.6 18.3 -91.4 -3.598
00:32 1032 30.47 861 25.43 -5.7 21.7 86 -7.8 18 -91.4 -3.598
00:33 1032 30.47 861 25.43 -5.8 21.6 84 -8 17.6 -91.4 -3.598
00:34 1032 30.47 861 25.43 -5.9 21.3 84 -8.2 17.3 -91.4 -3.598
00:35 1032 30.47 861 25.43 -6 21.1 84 -8.4 16.9 -91.4 -3.598
00:36 1032 30.47 861 25.43 -6.2 20.8 84 -8.5 16.7 -91.5 -3.602
00:37 1032 30.47 861 25.43 -6.4 20.5 84 -8.6 16.5 -91.5 -3.602
00:38 1032 30.47 861 25.43 -6.5 20.2 83 -8.9 16 -91.5 -3.602
00:39 1032 30.47 861 25.43 -6.7 19.9 84 -9 15.8 -91.5 -3.602
00:40 1032 30.47 861 25.43 -6.8 19.7 85 -9 15.9 -91.5 -3.602
00:41 1032 30.47 861 25.43 -6.9 19.6 85 -9.1 15.7 -91.5 -3.602
00:42 1032 30.47 861 25.43 -7 19.4 86 -8.9 16 -91.5 -3.602
00:43 1032 30.47 861 25.43 -6.8 19.8 90 -8.2 17.3 -91.5 -3.602
00:44 1032 30.47 861 25.43 -6.2 20.8 90 -7.6 18.4 -91.5 -3.602
00:45 1032 30.47 861 25.43 -5.6 22 86 -7.5 18.5 -91.5 -3.602
00:46 1032 30.47 861 25.43 -5.1 22.9 83 -7.5 18.5 -91.5 -3.602
00:47 1032 30.47 861 25.43 -4.8 23.4 83 -7.2 19 -91.6 -3.606
00:48 1032 30.47 861 25.43 -4.5 24 79 -7.6 18.4 -91.6 -3.606
00:49 1032 30.47 861 25.43 -4.4 24 79 -7.6 18.3 -91.6 -3.606
00:50 1032 30.47 861 25.43 -4.6 23.6 80 -7.6 18.2 -91.6 -3.606
00:51 1032 30.47 861 25.43 -4.7 23.6 80 -7.7 18.2 -91.6 -3.606
00:52 1032 30.47 861 25.43 -4.7 23.5 78 -8 17.6 -91.6 -3.606
00:53 1032 30.47 861 25.43 -5 23.1 76 -8.6 16.5 -91.6 -3.606
00:54 1032 30.47 861 25.43 -5.4 22.3 79 -8.5 16.8 -91.6 -3.606
00:55 1032 30.47 861 25.43 -5.7 21.7 82 -8.3 17.1 -91.6 -3.606
00:56 1032 30.47 861 25.43 -5.7 21.7 84 -8 17.6 -91.6 -3.606
00:57 1032 30.47 861 25.43 -5.7 21.8 85 -7.8 17.9 -91.6 -3.606
00:58 1032 30.47 861 25.43 -5.5 22.1 85 -7.6 18.3 -91.6 -3.606
00:59 1032 30.47 861 25.43 -5.4 22.2 84 -7.7 18.1 -91.6 -3.606
01:00 1032 30.47 861 25.43 -5.4 22.4 84 -7.7 18.2 -91.6 -3.606
01:01 1032 30.47 861 25.43 -5.3 22.4 83 -7.8 18 -91.6 -3.606
01:02 1032 30.47 861 25.43 -5.3 22.4 83 -7.7 18.1 -91.6 -3.606
01:03 1032 30.47 861 25.43 -5.3 22.4 81 -8.1 17.4 -91.6 -3.606
01:04 1032 30.47 861 25.43 -5.4 22.3 81 -8.1 17.5 -91.6 -3.606
01:05 1032 30.47 861 25.43 -5.4 22.2 81 -8.3 17.1 -91.7 -3.61
01:06 1032 30.47 861 25.43 -5.7 21.8 80 -8.6 16.5 -91.7 -3.61
01:07 1032 30.47 861 25.43 -5.9 21.4 81 -8.7 16.3 -91.7 -3.61
01:08 1032 30.47 861 25.43 -6.1 21 80 -9 15.8 -91.7 -3.61
01:09 1032 30.47 861 25.43 -6.5 20.4 81 -9.2 15.5 -91.7 -3.61
01:10 1032 30.47 861 25.43 -6.7 19.9 80 -9.7 14.6 -91.7 -3.61
01:11 1032 30.47 861 25.43 -7.1 19.3 81 -9.8 14.3 -91.7 -3.61
01:12 1032 30.47 861 25.43 -7.4 18.8 82 -9.9 14.1 -91.7 -3.61
01:13 1032 30.47 861 25.43 -7.5 18.5 85 -9.6 14.8 -91.7 -3.61
01:14 1032 30.47 861 25.43 -7.4 18.7 87 -9.2 15.4 -91.7 -3.61
01:15 1032 30.47 861 25.43 -7.3 18.9 87 -9.1 15.6 -91.7 -3.61
01:16 1031 30.45 861 25.43 -7.3 18.9 85 -9.3 15.3 -91.7 -3.61
01:17 1031 30.45 861 25.43 -7.3 18.9 85 -9.4 15.2 -91.7 -3.61
01:18 1031 30.45 861 25.43 -7.3 18.9 84 -9.5 14.9 -91.7 -3.61
01:19 1031 30.45 861 25.43 -7.3 18.8 84 -9.6 14.6 -91.7 -3.61
01:20 1031 30.45 861 25.43 -7.4 18.8 84 -9.7 14.6 -91.7 -3.61
01:21 1031 30.45 861 25.43 -7.4 18.7 85 -9.4 15 -91.8 -3.614
01:22 1031 30.45 861 25.43 -7.3 18.9 85 -9.3 15.3 -91.8 -3.614
01:23 1031 30.45 861 25.43 -7.1 19.2 85 -9.2 15.4 -91.8 -3.614
01:24 1031 30.45 861 25.43 -7 19.5 84 -9.2 15.4 -91.8 -3.614
01:25 1031 30.45 861 25.43 -7 19.5 84 -9.2 15.4 -91.8 -3.614
01:26 1031 30.45 861 25.43 -6.9 19.5 85 -9.1 15.7 -91.8 -3.614
01:27 1031 30.45 861 25.43 -6.8 19.7 84 -9.2 15.5 -91.8 -3.614
01:28 1031 30.45 861 25.43 -6.7 19.9 82 -9.3 15.2 -91.8 -3.614
01:29 1031 30.45 861 25.43 -6.7 20 81 -9.3 15.2 -91.8 -3.614
01:30 1031 30.45 861 25.43 -6.8 19.7 77 -10.3 13.5 -91.8 -3.614
01:31 1031 30.45 861 25.43 -7.4 18.8 78 -10.5 13.1 -91.9 -3.618
01:32 1031 30.45 861 25.43 -7.9 17.8 80 -10.7 12.7 -91.9 -3.618
01:33 1031 30.45 861 25.43 -8.1 17.4 83 -10.5 13.1 -91.9 -3.618
01:34 1031 30.45 861 25.43 -8.2 17.3 83 -10.5 13.1 -91.9 -3.618
01:35 1031 30.45 861 25.43 -8.1 17.4 86 -10.1 13.8 -91.9 -3.618
01:36 1031 30.45 861 25.43 -7.9 17.9 84 -10 13.9 -91.9 -3.618
01:37 1031 30.45 861 25.43 -7.7 18.2 84 -10 14 -92 -3.622
01:38 1031 30.45 861 25.43 -7.4 18.7 85 -9.4 15 -92 -3.622
01:39 1031 30.45 861 25.43 -7 19.4 86 -9 15.8 -92 -3.622
01:40 1031 30.45 860 25.4 -6.6 20.2 85 -8.7 16.4 -92 -3.622
01:41 1031 30.45 860 25.4 -6 21.2 84 -8.3 17.1 -92 -3.622
01:42 1031 30.45 860 25.4 -5.4 22.2 81 -8.1 17.4 -92 -3.622
01:43 1031 30.45 860 25.4 -4.9 23.1 79 -8 17.6 -92 -3.622
01:44 1031 30.45 860 25.4 -4.5 23.9 77 -7.9 17.7 -92 -3.622
01:45 1031 30.45 860 25.4 -4.2 24.5 74 -8.2 17.3 -92 -3.622
01:46 1031 30.45 860 25.4 -4.2 24.5 74 -8.1 17.4 -92 -3.622
01:47 1031 30.45 860 25.4 -4.3 24.2 73 -8.5 16.7 -92 -3.622
01:48 1031 30.45 861 25.43 -4.5 23.9 75 -8.3 17.1 -92 -3.622
01:49 1031 30.45 861 25.43 -4.5 24 77 -8 17.7 -92 -3.622
01:50 1031 30.45 861 25.43 -4.2 24.5 73 -8.3 17 -92 -3.622
01:51 1031 30.45 861 25.43 -4.3 24.3 68 -9.3 15.3 -92.1 -3.626
01:52 1031 30.45 861 25.43 -4.9 23.1 71 -9.4 15.2 -92.1 -3.626
01:53 1031 30.45 861 25.43 -5.4 22.2 73 -9.5 14.8 -92.1 -3.626
01:54 1031 30.45 861 25.43 -5.8 21.6 75 -9.6 14.7 -92.1 -3.626
01:55 1031 30.45 861 25.43 -6.1 21.1 76 -9.7 14.6 -92.1 -3.626
01:56 1031 30.45 861 25.43 -6.2 20.8 80 -9 15.7 -92.1 -3.626
01:57 1031 30.45 861 25.43 -6 21.2 78 -9.3 15.3 -92.1 -3.626
01:58 1031 30.45 861 25.43 -6 21.2 75 -9.7 14.5 -92.1 -3.626
01:59 1031 30.45 861 25.43 -6.3 20.7 76 -9.9 14.2 -92.1 -3.626
02:00 1031 30.45 861 25.43 -6.5 20.3 78 -9.7 14.5 -92.1 -3.626
02:01 1031 30.45 861 25.43 -6.6 20.2 79 -9.6 14.8 -92.2 -3.63
02:02 1031 30.45 861 25.43 -6.6 20.2 78 -9.8 14.4 -92.2 -3.63
02:03 1031 30.45 861 25.43 -6.5 20.3 80 -9.3 15.2 -92.2 -3.63
02:04 1031 30.45 861 25.43 -6.3 20.7 81 -9.1 15.6 -92.2 -3.63
02:05 1031 30.45 861 25.43 -6 21.1 76 -9.7 14.5 -92.2 -3.63
02:06 1031 30.45 861 25.43 -6.2 20.8 75 -10 13.9 -92.2 -3.63
02:07 1031 30.45 861 25.43 -6.5 20.3 74 -10.4 13.3 -92.2 -3.63
02:08 1031 30.45 861 25.43 -7 19.3 73 -11.1 12 -92.2 -3.63
02:09 1031 30.45 861 25.43 -7.7 18.2 76 -11.1 12 -92.2 -3.63
02:10 1031 30.45 861 25.43 -8 17.5 79 -11 12.1 -92.2 -3.63
02:11 1031 30.45 861 25.43 -8.2 17.2 80 -11 12.1 -92.2 -3.63
02:12 1031 30.45 861 25.43 -8.3 17.1 84 -10.5 13 -92.2 -3.63
02:13 1031 30.45 861 25.43 -8.1 17.5 84 -10.4 13.3 -92.2 -3.63
02:14 1031 30.45 861 25.43 -8 17.6 80 -10.8 12.5 -92.2 -3.63
02:15 1031 30.45 861 25.43 -8.1 17.4 81 -10.9 12.4 -92.2 -3.63
02:16 1031 30.45 861 25.43 -8.2 17.3 82 -10.7 12.8 -92.2 -3.63
02:17 1032 30.47 861 25.43 -8.1 17.4 82 -10.7 12.8 -92.2 -3.63
02:18 1031 30.45 861 25.43 -8 17.6 85 -10.1 13.9 -92.2 -3.63
02:19 1031 30.45 861 25.43 -7.5 18.5 85 -9.6 14.7 -92.2 -3.63
02:20 1031 30.45 861 25.43 -7.3 18.8 82 -9.9 14.2 -92.2 -3.63
02:21 1031 30.45 861 25.43 -7.1 19.3 83 -9.5 15 -92.2 -3.63
02:22 1031 30.45 861 25.43 -6.8 19.8 81 -9.6 14.8 -92.2 -3.63
02:23 1031 30.45 861 25.43 -6.7 19.9 79 -9.9 14.3 -92.2 -3.63
02:24 1031 30.45 861 25.43 -6.9 19.5 75 -10.7 12.7 -92.2 -3.63
02:25 1031 30.45 861 25.43 -7.3 18.9 78 -10.5 13 -92.2 -3.63
02:26 1031 30.45 861 25.43 -7.5 18.6 83 -9.9 14.1 -92.2 -3.63
02:27 1031 30.45 861 25.43 -7.3 18.9 79 -10.4 13.3 -92.2 -3.63
02:28 1031 30.45 861 25.43 -7.3 19 80 -10.2 13.6 -92.2 -3.63
02:29 1031 30.45 861 25.43 -7.3 19 82 -9.8 14.4 -92.2 -3.63
02:30 1031 30.45 861 25.43 -6.9 19.5 78 -10.1 13.8 -92.3 -3.634
02:31 1031 30.45 861 25.43 -6.8 19.7 79 -9.9 14.1 -92.3 -3.634
02:32 1031 30.45 861 25.43 -6.8 19.8 78 -10 14 -92.3 -3.634
02:33 1031 30.45 861 25.43 -6.8 19.8 78 -10.1 13.9 -92.3 -3.634
02:34 1031 30.45 861 25.43 -6.8 19.7 78 -10.1 13.8 -92.3 -3.634
02:35 1031 30.45 861 25.43 -6.8 19.8 80 -9.7 14.5 -92.3 -3.634
02:36 1031 30.45 861 25.43 -6.7 20 80 -9.6 14.7 -92.3 -3.634
02:37 1031 30.45 861 25.43 -6.5 20.3 78 -9.8 14.4 -92.3 -3.634
02:38 1031 30.45 861 25.43 -6.5 20.3 77 -9.9 14.2 -92.3 -3.634
02:39 1031 30.45 861 25.43 -6.5 20.2 79 -9.6 14.7 -92.3 -3.634
02:40 1031 30.45 861 25.43 -6.4 20.5 78 -9.6 14.7 -92.3 -3.634
02:41 1031 30.45 861 25.43 -6.3 20.6 77 -9.8 14.4 -92.3 -3.634
02:42 1031 30.45 861 25.43 -6.3 20.7 76 -9.8 14.3 -92.3 -3.634
02:43 1031 30.45 861 25.43 -6.5 20.4 75 -10.2 13.6 -92.3 -3.634
02:44 1031 30.45 861 25.43 -6.6 20.1 77 -10.1 13.9 -92.3 -3.634
02:45 1031 30.45 860 25.4 -6.7 19.9 77 -10.2 13.7 -92.3 -3.634
02:46 1031 30.45 861 25.43 -6.8 19.8 79 -9.8 14.3 -92.3 -3.634
02:47 1031 30.45 861 25.43 -6.6 20.1 80 -9.5 14.9 -92.3 -3.634
02:48 1031 30.45 860 25.4 -6.3 20.6 77 -9.8 14.4 -92.3 -3.634
02:49 1031 30.45 861 25.43 -6.3 20.7 76 -9.8 14.3 -92.4 -3.638
02:50 1031 30.45 860 25.4 -6.4 20.5 75 -10.1 13.8 -92.4 -3.638
02:51 1031 30.45 860 25.4 -6.6 20.2 76 -10.1 13.9 -92.4 -3.638
02:52 1031 30.45 860 25.4 -6.7 19.9 76 -10.3 13.4 -92.4 -3.638
02:53 1031 30.45 860 25.4 -6.9 19.6 75 -10.5 13.1 -92.4 -3.638
02:54 1031 30.45 860 25.4 -7 19.4 78 -10.3 13.4 -92.4 -3.638
02:55 1031 30.45 861 25.43 -6.9 19.5 82 -9.4 15 -92.4 -3.638
02:56 1031 30.45 861 25.43 -6.5 20.3 78 -9.7 14.6 -92.4 -3.638
02:57 1031 30.45 861 25.43 -6.2 20.9 81 -8.9 15.9 -92.4 -3.638
02:58 1031 30.45 861 25.43 -5.4 22.2 78 -8.8 16.2 -92.4 -3.638
02:59 1031 30.45 861 25.43 -4.9 23.1 71 -9.5 14.9 -92.4 -3.638
03:00 1031 30.45 860 25.4 -4.9 23.2 76 -8.5 16.7 -92.4 -3.638
03:01 1031 30.45 860 25.4 -4.5 24 68 -9.5 14.9 -92.4 -3.638
03:02 1031 30.45 860 25.4 -4.8 23.3 68 -9.8 14.3 -92.4 -3.638
03:03 1031 30.45 860 25.4 -5.1 22.7 76 -8.8 16.1 -92.4 -3.638
03:04 1031 30.45 860 25.4 -4.8 23.4 74 -8.8 16.2 -92.4 -3.638
03:05 1031 30.45 860 25.4 -4.6 23.8 67 -9.9 14.2 -92.4 -3.638
03:06 1031 30.45 860 25.4 -5.1 22.8 69 -10 13.9 -92.4 -3.638
03:07 1031 30.45 860 25.4 -5.8 21.6 69 -10.6 12.8 -92.4 -3.638
03:08 1031 30.45 860 25.4 -6.2 20.9 77 -9.6 14.6 -92.4 -3.638
03:09 1031 30.45 860 25.4 -6.1 21 75 -9.9 14.2 -92.4 -3.638
03:10 1031 30.45 860 25.4 -6.2 20.9 75 -9.9 14.2 -92.4 -3.638
03:11 1031 30.45 860 25.4 -6.3 20.7 74 -10.2 13.7 -92.4 -3.638
03:12 1031 30.45 860 25.4 -6.5 20.3 71 -10.9 12.4 -92.4 -3.638
03:13 1031 30.45 860 25.4 -7 19.4 73 -11.1 12 -92.4 -3.638
03:14 1031 30.45 860 25.4 -7.5 18.5 74 -11.4 11.4 -92.4 -3.638
03:15 1031 30.45 860 25.4 -8 17.6 80 -10.9 12.3 -92.4 -3.638
03:16 1031 30.45 860 25.4 -7.7 18.1 86 -9.6 14.7 -92.4 -3.638
03:17 1031 30.45 860 25.4 -7 19.4 84 -9.3 15.3 -92.4 -3.638
03:18 1031 30.45 860 25.4 -6.4 20.4 74 -10.3 13.5 -92.4 -3.638
03:19 1031 30.45 860 25.4 -6.5 20.2 73 -10.6 13 -92.4 -3.638
03:20 1031 30.45 860 25.4 -7 19.3 70 -11.6 11.1 -92.4 -3.638
03:21 1031 30.45 860 25.4 -7.7 18.1 76 -11.3 11.6 -92.4 -3.638
03:22 1031 30.45 860 25.4 -8.2 17.3 77 -11.6 11.2 -92.4 -3.638
03:23 1031 30.45 860 25.4 -8.5 16.8 81 -11.2 11.8 -92.4 -3.638
03:24 1031 30.45 860 25.4 -8.4 16.9 84 -10.6 13 -92.4 -3.638
03:25 1031 30.45 860 25.4 -7.9 17.7 83 -10.3 13.5 -92.4 -3.638
03:26 1031 30.45 860 25.4 -7.8 18 78 -11.1 12.1 -92.4 -3.638
03:27 1031 30.45 860 25.4 -8 17.5 78 -11.3 11.7 -92.4 -3.638
03:28 1031 30.45 860 25.4 -8.3 17 78 -11.5 11.3 -92.4 -3.638
03:29 1031 30.45 860 25.4 -8.6 16.6 81 -11.3 11.7 -92.4 -3.638
03:30 1031 30.45 860 25.4 -8.6 16.6 83 -11 12.1 -92.5 -3.642
03:31 1031 30.45 860 25.4 -8.5 16.6 83 -11 12.2 -92.4 -3.638
03:32 1031 30.45 860 25.4 -8.5 16.8 85 -10.5 13.1 -92.4 -3.638
03:33 1031 30.45 860 25.4 -7.9 17.8 92 -9 15.9 -92.5 -3.642
03:34 1031 30.45 860 25.4 -7 19.3 89 -8.6 16.5 -92.4 -3.638
03:35 1031 30.45 860 25.4 -6.6 20.2 75 -10.3 13.4 -92.4 -3.638
03:36 1031 30.45 860 25.4 -7 19.5 74 -10.9 12.4 -92.4 -3.638
03:37 1031 30.45 860 25.4 -7.6 18.3 76 -11.1 12 -92.4 -3.638
03:38 1031 30.45 860 25.4 -8.1 17.5 79 -11.1 12 -92.5 -3.642
03:39 1031 30.45 860 25.4 -8.3 17 81 -11 12.1 -92.5 -3.642
03:40 1031 30.45 860 25.4 -8.4 16.9 83 -10.8 12.5 -92.5 -3.642
03:41 1031 30.45 860 25.4 -8.4 16.9 84 -10.6 12.9 -92.5 -3.642
03:42 1031 30.45 860 25.4 -8.4 17 84 -10.7 12.8 -92.5 -3.642
03:43 1031 30.45 860 25.4 -8.3 17 84 -10.6 12.9 -92.5 -3.642
03:44 1031 30.45 860 25.4 -8.3 17 84 -10.5 13 -92.5 -3.642
03:45 1031 30.45 860 25.4 -8.3 17.1 86 -10.2 13.6 -92.5 -3.642
03:46 1031 30.45 860 25.4 -8.1 17.3 85 -10.2 13.6 -92.5 -3.642
03:47 1031 30.45 860 25.4 -8.1 17.5 83 -10.5 13.2 -92.5 -3.642
03:48 1031 30.45 860 25.4 -8.2 17.2 81 -10.9 12.3 -92.5 -3.642
03:49 1031 30.45 860 25.4 -8.4 16.9 82 -10.9 12.4 -92.5 -3.642
03:50 1031 30.45 860 25.4 -8.5 16.6 85 -10.7 12.8 -92.5 -3.642
03:51 1031 30.45 860 25.4 -8.7 16.4 79 -11.7 11 -92.5 -3.642
03:52 1031 30.45 860 25.4 -9.1 15.7 83 -11.4 11.5 -92.5 -3.642
03:53 1031 30.45 860 25.4 -9.4 15.2 82 -11.9 10.7 -92.5 -3.642
03:54 1031 30.45 860 25.4 -9.6 14.7 83 -12 10.5 -92.5 -3.642
03:55 1031 30.45 860 25.4 -9.8 14.4 86 -11.7 11 -92.5 -3.642
03:56 1031 30.45 860 25.4 -9.8 14.4 87 -11.5 11.3 -92.5 -3.642
03:57 1031 30.45 860 25.4 -9.7 14.6 88 -11.4 11.5 -92.5 -3.642
03:58 1031 30.45 860 25.4 -9.7 14.6 88 -11.3 11.7 -92.5 -3.642
03:59 1031 30.45 860 25.4 -9.5 14.8 89 -11 12.2 -92.5 -3.642
04:00 1031 30.45 860 25.4 -9.5 15 90 -10.8 12.5 -92.5 -3.642
04:01 1031 30.45 860 25.4 -9.1 15.6 91 -10.3 13.5 -92.5 -3.642
04:02 1031 30.45 860 25.4 -8.7 16.3 91 -10 14 -92.5 -3.642
04:03 1031 30.45 860 25.4 -8.6 16.5 90 -9.9 14.1 -92.5 -3.642
04:04 1031 30.45 860 25.4 -8.4 17 88 -10 13.9 -92.5 -3.642
04:05 1031 30.45 860 25.4 -8.5 16.7 84 -10.7 12.8 -92.5 -3.642
04:06 1031 30.45 860 25.4 -8.8 16.2 83 -11.1 12.1 -92.5 -3.642
04:07 1031 30.45 860 25.4 -9.1 15.7 85 -11.1 12 -92.5 -3.642
04:08 1030 30.42 860 25.4 -9.1 15.6 87 -10.9 12.5 -92.5 -3.642
04:09 1030 30.42 860 25.4 -9 15.8 88 -10.6 12.9 -92.6 -3.646
04:10 1030 30.42 860 25.4 -8.8 16.2 88 -10.5 13.1 -92.6 -3.646
04:11 1030 30.42 860 25.4 -8.6 16.5 87 -10.4 13.2 -92.6 -3.646
04:12 1030 30.42 860 25.4 -8.4 16.9 85 -10.5 13.2 -92.6 -3.646
04:13 1030 30.42 860 25.4 -8.3 17.2 85 -10.4 13.4 -92.6 -3.646
04:14 1030 30.42 860 25.4 -8.2 17.2 83 -10.7 12.8 -92.6 -3.646
04:15 1030 30.42 860 25.4 -8.3 17 82 -10.9 12.3 -92.6 -3.646
04:16 1030 30.42 860 25.4 -8.5 16.6 83 -11 12.3 -92.6 -3.646
04:17 1030 30.42 860 25.4 -8.6 16.5 85 -10.8 12.6 -92.6 -3.646
04:18 1030 30.42 860 25.4 -8.5 16.7 88 -10.2 13.6 -92.6 -3.646
04:19 1030 30.42 860 25.4 -8.3 17.1 85 -10.4 13.3 -92.6 -3.646
04:20 1030 30.42 860 25.4 -8.3 17.1 83 -10.7 12.8 -92.6 -3.646
04:21 1030 30.42 860 25.4 -8.3 17.1 83 -10.7 12.8 -92.6 -3.646
04:22 1030 30.42 860 25.4 -8.3 17 85 -10.5 13.2 -92.6 -3.646
04:23 1030 30.42 860 25.4 -8.3 17.1 85 -10.3 13.4 -92.6 -3.646
04:24 1030 30.42 860 25.4 -8.2 17.2 85 -10.4 13.3 -92.6 -3.646
04:25 1030 30.42 860 25.4 -8.2 17.2 83 -10.6 13 -92.6 -3.646
04:26 1030 30.42 860 25.4 -8.3 17 83 -10.7 12.7 -92.6 -3.646
04:27 1030 30.42 860 25.4 -8.4 16.9 84 -10.7 12.8 -92.6 -3.646
04:28 1030 30.42 860 25.4 -8.6 16.6 82 -11 12.1 -92.6 -3.646
04:29 1030 30.42 860 25.4 -8.8 16.3 83 -11.2 11.9 -92.6 -3.646
04:30 1030 30.42 860 25.4 -8.9 15.9 85 -11.1 12.1 -92.6 -3.646
04:31 1030 30.42 859 25.37 -9 15.8 86 -10.9 12.3 -92.6 -3.646
04:32 1030 30.42 859 25.37 -9 15.8 86 -11 12.2 -92.6 -3.646
04:33 1030 30.42 860 25.4 -9.1 15.7 85 -11.2 11.9 -92.6 -3.646
04:34 1030 30.42 860 25.4 -9.2 15.4 84 -11.4 11.5 -92.6 -3.646
04:35 1030 30.42 860 25.4 -9.3 15.2 85 -11.4 11.5 -92.6 -3.646
04:36 1030 30.42 859 25.37 -9.4 15.1 86 -11.3 11.6 -92.6 -3.646
04:37 1030 30.42 860 25.4 -9.4 15.1 87 -11.2 11.9 -92.6 -3.646
04:38 1030 30.42 859 25.37 -9.4 15.1 88 -11.1 12.1 -92.6 -3.646
04:39 1030 30.42 859 25.37 -9.3 15.3 88 -11 12.3 -92.6 -3.646
04:40 1030 30.42 859 25.37 -9.3 15.4 88 -10.9 12.3 -92.6 -3.646
04:41 1030 30.42 859 25.37 -9.2 15.4 88 -10.9 12.5 -92.6 -3.646
04:42 1030 30.42 859 25.37 -9.1 15.6 88 -10.7 12.7 -92.6 -3.646
04:43 1030 30.42 859 25.37 -9 15.8 86 -10.9 12.4 -92.6 -3.646
04:44 1030 30.42 859 25.37 -9.1 15.6 85 -11.2 11.9 -92.6 -3.646
04:45 1030 30.42 859 25.37 -9.2 15.4 86 -11.2 11.8 -92.6 -3.646
04:46 1030 30.42 859 25.37 -9.3 15.2 87 -11.2 11.9 -92.6 -3.646
04:47 1030 30.42 859 25.37 -9.4 15.2 87 -11.2 11.8 -92.6 -3.646
04:48 1030 30.42 859 25.37 -9.4 15.1 87 -11.2 11.8 -92.6 -3.646
04:49 1030 30.42 859 25.37 -9.5 15 87 -11.3 11.7 -92.6 -3.646
04:50 1030 30.42 859 25.37 -9.5 14.9 87 -11.3 11.7 -92.6 -3.646
04:51 1030 30.42 859 25.37 -9.5 14.9 87 -11.4 11.6 -92.6 -3.646
04:52 1030 30.42 859 25.37 -9.6 14.7 86 -11.5 11.3 -92.6 -3.646
04:53 1030 30.42 859 25.37 -9.7 14.5 87 -11.5 11.2 -92.6 -3.646
04:54 1030 30.42 859 25.37 -9.8 14.4 87 -11.6 11.2 -92.6 -3.646
04:55 1030 30.42 859 25.37 -9.8 14.3 87 -11.5 11.2 -92.6 -3.646
04:56 1030 30.42 859 25.37 -9.8 14.3 88 -11.4 11.5 -92.6 -3.646
04:57 1030 30.42 859 25.37 -9.8 14.4 90 -11.1 12 -92.6 -3.646
04:58 1030 30.42 859 25.37 -9.5 14.8 91 -10.7 12.8 -92.6 -3.646
04:59 1030 30.42 859 25.37 -9.3 15.3 91 -10.5 13.1 -92.6 -3.646
05:00 1030 30.42 859 25.37 -9.1 15.7 90 -10.4 13.3 -92.6 -3.646
05:01 1030 30.42 859 25.37 -9 15.9 90 -10.4 13.3 -92.6 -3.646
05:02 1030 30.42 859 25.37 -8.8 16.1 89 -10.3 13.5 -92.6 -3.646
05:03 1030 30.42 859 25.37 -8.7 16.4 88 -10.3 13.5 -92.6 -3.646
05:04 1030 30.42 859 25.37 -8.6 16.5 88 -10.3 13.5 -92.6 -3.646
05:05 1030 30.42 859 25.37 -8.6 16.6 88 -10.3 13.5 -92.6 -3.646
05:06 1030 30.42 859 25.37 -8.5 16.7 88 -10.1 13.8 -92.6 -3.646
05:07 1030 30.42 859 25.37 -8.5 16.7 88 -10.2 13.6 -92.6 -3.646
05:08 1030 30.42 859 25.37 -8.4 16.9 88 -10 13.9 -92.6 -3.646
05:09 1030 30.42 859 25.37 -8.4 16.9 85 -10.5 13.1 -92.6 -3.646
05:10 1030 30.42 859 25.37 -8.5 16.6 84 -10.8 12.6 -92.6 -3.646
05:11 1030 30.42 859 25.37 -8.7 16.3 85 -10.8 12.5 -92.6 -3.646
05:12 1030 30.42 859 25.37 -8.8 16.2 86 -10.8 12.6 -92.6 -3.646
05:13 1030 30.42 859 25.37 -8.8 16.1 86 -10.8 12.5 -92.6 -3.646
05:14 1030 30.42 859 25.37 -8.8 16.2 86 -10.7 12.8 -92.6 -3.646
05:15 1030 30.42 859 25.37 -8.8 16.1 87 -10.6 12.9 -92.6 -3.646
05:16 1030 30.42 859 25.37 -8.7 16.3 88 -10.3 13.4 -92.6 -3.646
05:17 1030 30.42 859 25.37 -8.7 16.4 87 -10.5 13.1 -92.6 -3.646
05:18 1030 30.42 859 25.37 -8.7 16.3 86 -10.6 12.9 -92.6 -3.646
05:19 1030 30.42 859 25.37 -8.8 16.2 86 -10.7 12.7 -92.6 -3.646
05:20 1030 30.42 859 25.37 -8.8 16.1 86 -10.7 12.7 -92.6 -3.646
05:21 1030 30.42 859 25.37 -8.9 16 86 -10.8 12.5 -92.6 -3.646
05:22 1030 30.42 859 25.37 -9 15.7 86 -10.9 12.3 -92.6 -3.646
05:23 1030 30.42 859 25.37 -9.1 15.6 87 -10.9 12.4 -92.6 -3.646
05:24 1030 30.42 859 25.37 -9.2 15.5 88 -10.8 12.5 -92.6 -3.646
05:25 1030 30.42 859 25.37 -9.1 15.7 88 -10.8 12.6 -92.7 -3.65
05:26 1030 30.42 859 25.37 -9.1 15.6 88 -10.8 12.6 -92.7 -3.65
05:27 1030 30.42 859 25.37 -9.1 15.6 87 -11 12.3 -92.7 -3.65
05:28 1030 30.42 859 25.37 -9.2 15.4 86 -11.2 11.9 -92.7 -3.65
05:29 1030 30.42 859 25.37 -9.4 15.1 86 -11.3 11.6 -92.7 -3.65
05:30 1030 30.42 859 25.37 -9.5 14.9 86 -11.4 11.6 -92.7 -3.65
05:31 1030 30.42 859 25.37 -9.6 14.7 86 -11.5 11.2 -92.7 -3.65
05:32 1030 30.42 859 25.37 -9.7 14.6 87 -11.4 11.5 -92.7 -3.65
05:33 1030 30.42 859 25.37 -9.7 14.5 88 -11.3 11.7 -92.7 -3.65
05:34 1030 30.42 859 25.37 -9.6 14.6 89 -11.2 11.8 -92.7 -3.65
05:35 1030 30.42 859 25.37 -9.6 14.7 89 -11 12.1 -92.7 -3.65
05:36 1030 30.42 859 25.37 -9.5 14.9 90 -10.8 12.5 -92.7 -3.65
05:37 1030 30.42 859 25.37 -9.3 15.3 92 -10.3 13.4 -92.7 -3.65
05:38 1030 30.42 859 25.37 -8.9 16.1 93 -9.8 14.4 -92.7 -3.65
05:39 1030 30.42 859 25.37 -8.6 16.5 90 -9.9 14.2 -92.7 -3.65
05:40 1030 30.42 859 25.37 -8.5 16.7 88 -10.1 13.8 -92.7 -3.65
05:41 1030 30.42 859 25.37 -8.5 16.6 88 -10.1 13.8 -92.7 -3.65
05:42 1030 30.42 859 25.37 -8.5 16.7 90 -9.9 14.2 -92.6 -3.646
05:43 1030 30.42 859 25.37 -8.4 16.8 89 -9.9 14.1 -92.6 -3.646
05:44 1030 30.42 859 25.37 -8.4 16.8 88 -10.1 13.8 -92.6 -3.646
05:45 1030 30.42 859 25.37 -8.5 16.8 89 -10 14 -92.6 -3.646
05:46 1030 30.42 859 25.37 -8.4 16.8 89 -10 14.1 -92.6 -3.646
05:47 1030 30.42 859 25.37 -8.5 16.8 88 -10.1 13.8 -92.7 -3.65
05:48 1030 30.42 859 25.37 -8.6 16.6 84 -10.8 12.5 -92.7 -3.65
05:49 1030 30.42 859 25.37 -9 15.9 85 -11.1 12.1 -92.7 -3.65
05:50 1030 30.42 859 25.37 -9.1 15.6 88 -10.7 12.7 -92.7 -3.65
05:51 1030 30.42 859 25.37 -9.1 15.7 90 -10.4 13.2 -92.7 -3.65
05:52 1030 30.42 859 25.37 -8.9 15.9 89 -10.4 13.3 -92.7 -3.65
05:53 1030 30.42 859 25.37 -9 15.9 88 -10.6 13 -92.7 -3.65
05:54 1030 30.42 859 25.37 -9 15.7 88 -10.7 12.7 -92.7 -3.65
05:55 1030 30.42 859 25.37 -9.1 15.6 89 -10.6 12.8 -92.7 -3.65
05:56 1030 30.42 859 25.37 -9.1 15.7 90 -10.5 13.1 -92.7 -3.65
05:57 1030 30.42 859 25.37 -9 15.8 89 -10.4 13.2 -92.7 -3.65
05:58 1030 30.42 859 25.37 -8.9 15.9 91 -10.2 13.6 -92.7 -3.65
05:59 1030 30.42 859 25.37 -8.8 16.2 89 -10.3 13.5 -92.7 -3.65
06:00 1030 30.42 859 25.37 -8.9 16 88 -10.5 13.1 -92.7 -3.65
06:01 1030 30.42 859 25.37 -8.9 16 88 -10.5 13.1 -92.7 -3.65
06:02 1030 30.42 859 25.37 -9 15.9 87 -10.8 12.6 -92.7 -3.65
06:03 1030 30.42 859 25.37 -9.1 15.5 87 -11 12.2 -92.7 -3.65
06:04 1030 30.42 859 25.37 -9.3 15.3 88 -11 12.2 -92.7 -3.65
06:05 1030 30.42 859 25.37 -9.5 14.8 85 -11.7 11 -92.7 -3.65
06:06 1030 30.42 859 25.37 -9.8 14.3 86 -11.7 10.9 -92.7 -3.65
06:07 1030 30.42 859 25.37 -9.9 14.1 90 -11.3 11.7 -92.7 -3.65
06:08 1030 30.42 859 25.37 -9.8 14.3 90 -11.1 12 -92.7 -3.65
06:09 1030 30.42 859 25.37 -9.7 14.5 91 -11 12.2 -92.7 -3.65
06:10 1030 30.42 859 25.37 -9.7 14.5 89 -11.2 11.9 -92.7 -3.65
06:11 1030 30.42 859 25.37 -9.8 14.3 89 -11.4 11.6 -92.7 -3.65
06:12 1030 30.42 859 25.37 -9.9 14.2 89 -11.3 11.6 -92.7 -3.65
06:13 1030 30.42 859 25.37 -9.9 14.3 90 -11.2 11.8 -92.7 -3.65
06:14 1029 30.39 859 25.37 -9.8 14.3 90 -11.2 11.9 -92.7 -3.65
06:15 1029 30.39 859 25.37 -9.9 14.3 89 -11.3 11.6 -92.7 -3.65
06:16 1030 30.42 859 25.37 -9.9 14.2 89 -11.4 11.5 -92.7 -3.65
06:17 1029 30.39 859 25.37 -9.9 14.3 90 -11.2 11.9 -92.7 -3.65
06:18 1029 30.39 859 25.37 -9.8 14.3 90 -11.2 11.9 -92.7 -3.65
06:19 1029 30.39 859 25.37 -9.7 14.5 90 -11.1 12 -92.7 -3.65
06:20 1029 30.39 859 25.37 -9.7 14.5 88 -11.3 11.6 -92.7 -3.65
06:21 1029 30.39 859 25.37 -9.8 14.4 89 -11.3 11.7 -92.7 -3.65
06:22 1030 30.42 859 25.37 -9.7 14.5 90 -11 12.2 -92.7 -3.65
06:23 1030 30.42 859 25.37 -9.6 14.7 91 -10.9 12.4 -92.7 -3.65
06:24 1030 30.42 859 25.37 -9.5 14.9 91 -10.6 12.9 -92.7 -3.65
06:25 1030 30.42 859 25.37 -9.4 15 90 -10.8 12.6 -92.7 -3.65
06:26 1030 30.42 859 25.37 -9.3 15.2 92 -10.4 13.4 -92.7 -3.65
06:27 1030 30.42 859 25.37 -9 15.9 94 -9.8 14.4 -92.7 -3.65
06:28 1030 30.42 859 25.37 -8.8 16.1 90 -10.2 13.7 -92.7 -3.65
06:29 1030 30.42 859 25.37 -8.9 15.9 88 -10.6 12.9 -92.7 -3.65
06:30 1030 30.42 859 25.37 -9.1 15.7 88 -10.7 12.7 -92.7 -3.65
06:31 1029 30.39 859 25.37 -9.1 15.7 89 -10.6 13 -92.7 -3.65
06:32 1029 30.39 859 25.37 -9.1 15.6 89 -10.6 12.9 -92.7 -3.65
06:33 1029 30.39 859 25.37 -9.1 15.5 90 -10.6 13 -92.7 -3.65
06:34 1029 30.39 859 25.37 -9.1 15.6 90 -10.5 13.1 -92.7 -3.65
06:35 1029 30.39 859 25.37 -9.1 15.7 90 -10.4 13.3 -92.7 -3.65
06:36 1029 30.39 859 25.37 -9 15.7 91 -10.3 13.5 -92.7 -3.65
06:37 1029 30.39 859 25.37 -8.9 16 91 -10.2 13.7 -92.7 -3.65
06:38 1029 30.39 859 25.37 -8.8 16.1 91 -10 14 -92.7 -3.65
06:39 1029 30.39 859 25.37 -8.6 16.5 91 -9.9 14.3 -92.7 -3.65
06:40 1029 30.39 859 25.37 -8.6 16.6 90 -10 14 -92.7 -3.65
06:41 1029 30.39 859 25.37 -8.6 16.6 90 -10 14.1 -92.7 -3.65
06:42 1029 30.39 859 25.37 -8.5 16.8 91 -9.7 14.5 -92.7 -3.65
06:43 1029 30.39 859 25.37 -8.4 17 90 -9.7 14.6 -92.7 -3.65
06:44 1029 30.39 859 25.37 -8.3 17.1 89 -9.8 14.4 -92.7 -3.65
06:45 1029 30.39 859 25.37 -8.3 17.1 90 -9.7 14.5 -92.7 -3.65
06:46 1029 30.39 859 25.37 -8.2 17.3 91 -9.4 15.1 -92.7 -3.65
06:47 1029 30.39 859 25.37 -8.1 17.4 88 -9.7 14.5 -92.7 -3.65
06:48 1029 30.39 859 25.37 -8.2 17.3 89 -9.7 14.6 -92.7 -3.65
06:49 1029 30.39 859 25.37 -8.1 17.5 91 -9.2 15.4 -92.7 -3.65
06:50 1029 30.39 859 25.37 -7.9 17.9 90 -9.2 15.4 -92.7 -3.65
06:51 1029 30.39 859 25.37 -7.7 18.2 90 -9 15.8 -92.7 -3.65
06:52 1029 30.39 859 25.37 -7.6 18.3 86 -9.6 14.7 -92.7 -3.65
06:53 1029 30.39 859 25.37 -7.8 18 85 -9.9 14.3 -92.7 -3.65
06:54 1029 30.39 859 25.37 -8 17.6 86 -10 14 -92.6 -3.646
06:55 1029 30.39 859 25.37 -8.1 17.3 87 -9.9 14.2 -92.6 -3.646
06:56 1029 30.39 859 25.37 -8.2 17.3 88 -9.9 14.2 -92.6 -3.646
06:57 1030 30.42 859 25.37 -8.2 17.2 89 -9.7 14.5 -92.6 -3.646
06:58 1030 30.42 859 25.37 -8.1 17.4 89 -9.7 14.6 -92.6 -3.646
06:59 1029 30.39 859 25.37 -7.9 17.7 90 -9.2 15.4 -92.6 -3.646
07:00 1029 30.39 859 25.37 -7.7 18.2 91 -9 15.9 -92.6 -3.646
07:01 1029 30.39 859 25.37 -7.4 18.7 90 -8.8 16.1 -92.6 -3.646
07:02 1029 30.39 859 25.37 -7.2 19 88 -8.9 15.9 -92.6 -3.646
07:03 1029 30.39 859 25.37 -7.2 19 86 -9.1 15.5 -92.6 -3.646
07:04 1029 30.39 859 25.37 -7.3 19 86 -9.2 15.4 -92.6 -3.646
07:05 1029 30.39 859 25.37 -7.3 18.9 87 -9.1 15.7 -92.6 -3.646
07:06 1029 30.39 859 25.37 -7.1 19.1 89 -8.6 16.5 -92.6 -3.646
07:07 1029 30.39 859 25.37 -6.9 19.5 89 -8.5 16.7 -92.6 -3.646
07:08 1029 30.39 859 25.37 -6.9 19.7 83 -9.3 15.3 -92.6 -3.646
07:09 1029 30.39 859 25.37 -7.2 19.1 81 -9.9 14.2 -92.6 -3.646
07:10 1029 30.39 859 25.37 -7.6 18.3 83 -10 14.1 -92.6 -3.646
07:11 1029 30.39 859 25.37 -7.9 17.7 83 -10.3 13.5 -92.6 -3.646
07:12 1029 30.39 859 25.37 -8.2 17.2 86 -10.2 13.6 -92.6 -3.646
07:13 1029 30.39 859 25.37 -8.3 17 85 -10.4 13.3 -92.6 -3.646
07:14 1029 30.39 859 25.37 -8.5 16.6 86 -10.5 13.1 -92.6 -3.646
07:15 1029 30.39 859 25.37 -8.7 16.4 88 -10.2 13.6 -92.6 -3.646
07:16 1029 30.39 858 25.34 -8.5 16.7 88 -10.2 13.7 -92.6 -3.646
07:17 1029 30.39 858 25.34 -8.6 16.6 85 -10.6 12.9 -92.6 -3.646
07:18 1029 30.39 858 25.34 -8.9 16.1 84 -11.1 12 -92.6 -3.646
07:19 1029 30.39 858 25.34 -9.2 15.5 85 -11.3 11.7 -92.6 -3.646
07:20 1029 30.39 858 25.34 -9.4 15.2 86 -11.4 11.6 -92.6 -3.646
07:21 1029 30.39 858 25.34 -9.6 14.7 85 -11.7 10.9 -92.6 -3.646
07:22 1029 30.39 858 25.34 -9.8 14.3 86 -11.8 10.8 -92.6 -3.646
07:23 1029 30.39 858 25.34 -10 14.1 87 -11.7 10.9 -92.6 -3.646
07:24 1029 30.39 858 25.34 -10.1 13.8 88 -11.7 10.9 -92.7 -3.65
07:25 1029 30.39 858 25.34 -10.1 13.9 89 -11.6 11.2 -92.7 -3.65
07:26 1029 30.39 858 25.34 -10.1 13.8 89 -11.6 11.1 -92.7 -3.65
07:27 1029 30.39 858 25.34 -10.1 13.7 89 -11.6 11.2 -92.7 -3.65
07:28 1029 30.39 858 25.34 -10.1 13.8 90 -11.4 11.4 -92.7 -3.65
07:29 1029 30.39 858 25.34 -10 14.1 91 -11.2 11.9 -92.7 -3.65
07:30 1029 30.39 858 25.34 -9.9 14.2 91 -11 12.2 -92.7 -3.65
07:31 1029 30.39 858 25.34 -9.7 14.6 93 -10.6 12.8 -92.7 -3.65
07:32 1029 30.39 858 25.34 -9.5 14.9 91 -10.7 12.7 -92.7 -3.65
07:33 1029 30.39 858 25.34 -9.4 15 90 -10.7 12.7 -92.7 -3.65
07:34 1029 30.39 858 25.34 -9.4 15.1 90 -10.7 12.7 -92.7 -3.65
07:35 1029 30.39 858 25.34 -9.4 15.1 89 -10.9 12.4 -92.7 -3.65
07:36 1029 30.39 858 25.34 -9.4 15 90 -10.8 12.6 -92.7 -3.65
07:37 1029 30.39 858 25.34 -9.3 15.3 92 -10.3 13.4 -92.7 -3.65
07:38 1029 30.39 858 25.34 -9 15.7 92 -10.1 13.8 -92.7 -3.65
07:39 1029 30.39 858 25.34 -8.9 15.9 90 -10.3 13.5 -92.7 -3.65
07:40 1029 30.39 858 25.34 -9 15.9 87 -10.8 12.6 -92.7 -3.65
07:41 1029 30.39 858 25.34 -9.2 15.4 85 -11.4 11.6 -92.7 -3.65
07:42 1029 30.39 858 25.34 -9.6 14.8 84 -11.7 10.9 -92.7 -3.65
07:43 1029 30.39 858 25.34 -9.9 14.3 86 -11.8 10.8 -92.7 -3.65
07:44 1029 30.39 858 25.34 -10.1 13.9 86 -11.9 10.5 -92.7 -3.65
07:45 1029 30.39 858 25.34 -10.2 13.7 87 -11.9 10.6 -92.7 -3.65
07:46 1029 30.39 858 25.34 -10.3 13.5 87 -12 10.4 -92.7 -3.65
07:47 1029 30.39 858 25.34 -10.3 13.4 88 -12 10.4 -92.7 -3.65
07:48 1029 30.39 858 25.34 -10.5 13.2 87 -12.2 10 -92.7 -3.65
07:49 1029 30.39 858 25.34 -10.6 13 87 -12.4 9.8 -92.7 -3.65
07:50 1029 30.39 858 25.34 -10.6 12.9 88 -12.2 10.1 -92.7 -3.65
07:51 1029 30.39 858 25.34 -10.5 13.1 91 -11.7 10.9 -92.7 -3.65
07:52 1029 30.39 858 25.34 -10.4 13.3 90 -11.7 10.9 -92.7 -3.65
07:53 1029 30.39 858 25.34 -10.3 13.4 90 -11.6 11.1 -92.7 -3.65
07:54 1029 30.39 858 25.34 -10.1 13.9 92 -11.2 11.9 -92.7 -3.65
07:55 1029 30.39 858 25.34 -9.9 14.2 92 -11 12.2 -92.7 -3.65
07:56 1029 30.39 858 25.34 -9.7 14.6 92 -10.7 12.8 -92.7 -3.65
07:57 1029 30.39 858 25.34 -9.4 15.1 92 -10.4 13.3 -92.7 -3.65
07:58 1029 30.39 858 25.34 -9.2 15.5 91 -10.3 13.4 -92.8 -3.654
07:59 1029 30.39 858 25.34 -9.4 15.1 84 -11.7 11 -92.8 -3.654
08:00 1029 30.39 858 25.34 -9.9 14.3 82 -12.3 9.8 -92.8 -3.654
08:01 1029 30.39 858 25.34 -10.2 13.7 86 -12.1 10.2 -92.8 -3.654
08:02 1029 30.39 858 25.34 -10.3 13.4 86 -12.2 10 -92.8 -3.654
08:03 1029 30.39 858 25.34 -10.6 13 85 -12.6 9.3 -92.8 -3.654
08:04 1029 30.39 858 25.34 -10.9 12.5 84 -13 8.6 -92.8 -3.654
08:05 1029 30.39 858 25.34 -11.1 12 85 -13.2 8.2 -92.8 -3.654
08:06 1029 30.39 858 25.34 -11.5 11.4 84 -13.7 7.4 -92.8 -3.654
08:07 1029 30.39 858 25.34 -11.8 10.9 84 -13.9 7 -92.8 -3.654
08:08 1029 30.39 858 25.34 -12 10.4 86 -13.8 7.1 -92.8 -3.654
08:09 1029 30.39 858 25.34 -12 10.5 89 -13.4 7.8 -92.8 -3.654
08:10 1029 30.39 858 25.34 -11.8 10.7 91 -13.1 8.5 -92.8 -3.654
08:11 1029 30.39 858 25.34 -11.6 11.1 92 -12.6 9.2 -92.8 -3.654
08:12 1029 30.39 858 25.34 -11.3 11.6 93 -12.3 9.9 -92.8 -3.654
08:13 1029 30.39 858 25.34 -11.1 12.1 92 -12.2 10.1 -92.8 -3.654
08:14 1029 30.39 858 25.34 -11 12.2 90 -12.4 9.8 -92.9 -3.657
08:15 1029 30.39 858 25.34 -11 12.3 89 -12.5 9.5 -92.9 -3.657
08:16 1029 30.39 858 25.34 -10.9 12.3 89 -12.4 9.6 -92.9 -3.657
08:17 1029 30.39 858 25.34 -11 12.2 87 -12.7 9.2 -92.9 -3.657
08:18 1029 30.39 858 25.34 -11.1 12 87 -12.8 8.9 -92.9 -3.657
08:19 1029 30.39 858 25.34 -11.1 11.9 88 -12.8 9 -92.9 -3.657
08:20 1029 30.39 858 25.34 -11.1 12 89 -12.6 9.2 -92.9 -3.657
08:21 1029 30.39 858 25.34 -11.1 12.1 89 -12.5 9.5 -92.9 -3.657
08:22 1029 30.39 858 25.34 -11 12.2 89 -12.5 9.5 -92.9 -3.657
08:23 1029 30.39 858 25.34 -11 12.3 89 -12.5 9.5 -92.9 -3.657
08:24 1029 30.39 858 25.34 -10.9 12.4 89 -12.3 9.8 -92.9 -3.657
08:25 1029 30.39 858 25.34 -10.8 12.5 90 -12.2 10 -92.9 -3.657
08:26 1029 30.39 858 25.34 -10.7 12.8 92 -11.7 10.9 -92.9 -3.657
08:27 1028 30.36 858 25.34 -10.3 13.5 93 -11.3 11.7 -92.9 -3.657
08:28 1028 30.36 858 25.34 -10.1 13.9 91 -11.3 11.7 -92.9 -3.657
08:29 1029 30.39 858 25.34 -10 14.1 89 -11.4 11.5 -92.9 -3.657
08:30 1028 30.36 858 25.34 -9.9 14.1 88 -11.6 11.2 -92.9 -3.657
08:31 1028 30.36 858 25.34 -9.9 14.2 90 -11.3 11.6 -92.9 -3.657
08:32 1028 30.36 858 25.34 -9.8 14.4 89 -11.3 11.7 -92.9 -3.657
08:33 1028 30.36 858 25.34 -9.8 14.4 87 -11.5 11.3 -92.9 -3.657
08:34 1028 30.36 858 25.34 -9.8 14.4 89 -11.3 11.6 -92.9 -3.657
08:35 1028 30.36 858 25.34 -9.7 14.6 90 -11.1 12.1 -92.9 -3.657
08:36 1028 30.36 858 25.34 -9.5 14.9 88 -11.1 12 -92.9 -3.657
08:37 1028 30.36 858 25.34 -9.4 15 88 -11.1 12 -92.9 -3.657
08:38 1028 30.36 858 25.34 -9.2 15.4 88 -10.8 12.5 -92.9 -3.657
08:39 1028 30.36 858 25.34 -9.1 15.6 83 -11.4 11.4 -92.9 -3.657
08:40 1028 30.36 858 25.34 -9.3 15.2 83 -11.7 10.9 -92.9 -3.657
08:41 1028 30.36 858 25.34 -9.4 15.1 88 -11 12.1 -92.9 -3.657
08:42 1028 30.36 858 25.34 -9.2 15.4 87 -11 12.2 -92.9 -3.657
08:43 1028 30.36 857 25.31 -9.2 15.5 86 -11.1 12 -92.9 -3.657
08:44 1028 30.36 858 25.34 -9.2 15.5 86 -11.2 11.9 -92.9 -3.657
08:45 1028 30.36 857 25.31 -9.2 15.5 85 -11.2 11.9 -92.9 -3.657
08:46 1028 30.36 857 25.31 -9.1 15.5 85 -11.2 11.8 -92.9 -3.657
08:47 1028 30.36 857 25.31 -9.1 15.6 85 -11.2 11.8 -92.9 -3.657
08:48 1028 30.36 857 25.31 -9.1 15.7 86 -11.1 12.1 -92.9 -3.657
08:49 1028 30.36 857 25.31 -9 15.8 86 -10.9 12.3 -92.9 -3.657
08:50 1028 30.36 857 25.31 -8.9 16 88 -10.6 13 -92.9 -3.657
08:51 1028 30.36 857 25.31 -8.6 16.5 86 -10.5 13.1 -92.9 -3.657
08:52 1028 30.36 857 25.31 -8.5 16.7 83 -10.9 12.4 -92.9 -3.657
08:53 1028 30.36 857 25.31 -8.6 16.6 84 -10.8 12.5 -92.9 -3.657
08:54 1028 30.36 857 25.31 -8.4 16.9 85 -10.6 13 -92.9 -3.657
08:55 1028 30.36 857 25.31 -8.2 17.2 85 -10.3 13.5 -92.9 -3.657
08:56 1028 30.36 857 25.31 -8.1 17.4 84 -10.4 13.3 -92.9 -3.657
08:57 1028 30.36 857 25.31 -8.1 17.4 82 -10.7 12.8 -92.9 -3.657
08:58 1028 30.36 857 25.31 -8.1 17.4 83 -10.5 13.1 -92.9 -3.657
08:59 1028 30.36 857 25.31 -8 17.5 85 -10.2 13.6 -92.9 -3.657
09:00 1028 30.36 857 25.31 -7.9 17.8 85 -10 14 -92.9 -3.657
09:01 1028 30.36 857 25.31 -7.8 18.1 85 -9.9 14.2 -92.9 -3.657
09:02 1028 30.36 857 25.31 -7.7 18.2 83 -10.1 13.8 -92.9 -3.657
09:03 1028 30.36 857 25.31 -7.7 18.1 83 -10.1 13.8 -92.9 -3.657
09:04 1028 30.36 857 25.31 -7.7 18.1 84 -10 14.1 -92.9 -3.657
09:05 1028 30.36 857 25.31 -7.7 18.2 84 -9.9 14.1 -92.9 -3.657
09:06 1028 30.36 857 25.31 -7.6 18.4 85 -9.7 14.6 -92.9 -3.657
09:07 1028 30.36 857 25.31 -7.4 18.8 86 -9.3 15.3 -92.9 -3.657
09:08 1028 30.36 857 25.31 -7 19.3 87 -8.8 16.1 -92.9 -3.657
09:09 1028 30.36 857 25.31 -6.7 20 86 -8.6 16.5 -92.9 -3.657
09:10 1028 30.36 857 25.31 -6.4 20.5 84 -8.6 16.5 -92.8 -3.654
09:11 1028 30.36 857 25.31 -6.2 20.8 84 -8.4 16.8 -92.8 -3.654
09:12 1028 30.36 857 25.31 -6 21.1 84 -8.3 17.1 -92.8 -3.654
09:13 1028 30.36 857 25.31 -5.8 21.5 83 -8.3 17 -92.8 -3.654
09:14 1028 30.36 857 25.31 -5.7 21.7 82 -8.4 16.9 -92.8 -3.654
09:15 1028 30.36 857 25.31 -5.7 21.8 81 -8.4 16.8 -92.8 -3.654
09:16 1028 30.36 857 25.31 -5.7 21.8 79 -8.7 16.3 -92.8 -3.654
09:17 1028 30.36 857 25.31 -5.7 21.7 80 -8.6 16.5 -92.8 -3.654
09:18 1028 30.36 857 25.31 -5.7 21.7 79 -8.7 16.3 -92.8 -3.654
09:19 1028 30.36 857 25.31 -5.6 21.8 79 -8.7 16.4 -92.8 -3.654
09:20 1028 30.36 857 25.31 -5.6 21.9 78 -8.9 16 -92.7 -3.65
09:21 1028 30.36 857 25.31 -5.6 21.9 79 -8.8 16.2 -92.7 -3.65
09:22 1028 30.36 857 25.31 -5.6 21.9 80 -8.6 16.5 -92.7 -3.65
09:23 1028 30.36 857 25.31 -5.6 22 80 -8.5 16.7 -92.7 -3.65
09:24 1028 30.36 857 25.31 -5.4 22.2 80 -8.4 16.9 -92.7 -3.65
09:25 1028 30.36 857 25.31 -5.3 22.5 80 -8.2 17.2 -92.7 -3.65
09:26 1028 30.36 857 25.31 -5.1 22.8 80 -8 17.6 -92.7 -3.65
09:27 1028 30.36 857 25.31 -4.9 23.1 80 -7.9 17.8 -92.7 -3.65
09:28 1028 30.36 857 25.31 -4.8 23.4 80 -7.7 18.1 -92.7 -3.65
09:29 1028 30.36 857 25.31 -4.5 23.8 79 -7.6 18.2 -92.7 -3.65
09:30 1028 30.36 857 25.31 -4.4 24.2 79 -7.5 18.5 -92.7 -3.65
09:31 1028 30.36 857 25.31 -4.1 24.5 78 -7.4 18.7 -92.7 -3.65
09:32 1028 30.36 857 25.31 -4 24.8 77 -7.4 18.8 -92.7 -3.65
09:33 1028 30.36 857 25.31 -3.8 25.1 77 -7.3 18.8 -92.6 -3.646
09:34 1028 30.36 857 25.31 -3.7 25.4 76 -7.3 18.8 -92.6 -3.646
09:35 1028 30.36 857 25.31 -3.5 25.8 75 -7.2 19 -92.6 -3.646
09:36 1028 30.36 857 25.31 -3.3 26.1 75 -7.1 19.2 -92.6 -3.646
09:37 1028 30.36 857 25.31 -3 26.6 74 -7 19.4 -92.6 -3.646
09:38 1028 30.36 857 25.31 -2.8 27 73 -7 19.5 -92.6 -3.646
09:39 1028 30.36 857 25.31 -2.6 27.3 73 -6.8 19.8 -92.6 -3.646
09:40 1028 30.36 857 25.31 -2.5 27.6 72 -6.8 19.8 -92.6 -3.646
09:41 1028 30.36 857 25.31 -2.4 27.7 72 -6.8 19.7 -92.6 -3.646
09:42 1028 30.36 857 25.31 -2.3 27.8 72 -6.8 19.8 -92.6 -3.646
09:43 1028 30.36 857 25.31 -2.3 27.9 71 -6.8 19.8 -92.6 -3.646
09:44 1028 30.36 857 25.31 -2.2 28 70 -7 19.4 -92.6 -3.646
09:45 1028 30.36 857 25.31 -2.4 27.8 70 -7.2 19.1 -92.6 -3.646
09:46 1028 30.36 857 25.31 -2.5 27.5 71 -7.1 19.2 -92.6 -3.646
09:47 1028 30.36 857 25.31 -2.6 27.4 72 -7 19.4 -92.6 -3.646
09:48 1028 30.36 857 25.31 -2.6 27.4 72 -6.9 19.5 -92.6 -3.646
09:49 1028 30.36 857 25.31 -2.6 27.3 73 -6.8 19.7 -92.5 -3.642
09:50 1028 30.36 857 25.31 -2.5 27.6 73 -6.7 20 -92.5 -3.642
09:51 1028 30.36 857 25.31 -2.3 27.8 72 -6.7 19.9 -92.5 -3.642
09:52 1028 30.36 857 25.31 -2.2 28 72 -6.6 20.1 -92.5 -3.642
09:53 1028 30.36 857 25.31 -2.1 28.2 72 -6.5 20.2 -92.5 -3.642
09:54 1028 30.36 857 25.31 -2 28.4 71 -6.6 20.1 -92.5 -3.642
09:55 1028 30.36 857 25.31 -2 28.4 70 -6.8 19.8 -92.5 -3.642
09:56 1028 30.36 857 25.31 -1.9 28.6 70 -6.7 20 -92.5 -3.642
09:57 1028 30.36 857 25.31 -1.8 28.7 69 -6.8 19.8 -92.5 -3.642
09:58 1028 30.36 857 25.31 -1.9 28.6 69 -6.9 19.6 -92.5 -3.642
09:59 1028 30.36 857 25.31 -1.9 28.6 69 -6.9 19.6 -92.5 -3.642
10:00 1028 30.36 857 25.31 -1.9 28.6 68 -7 19.5 -92.5 -3.642
10:01 1028 30.36 857 25.31 -1.9 28.5 69 -6.9 19.6 -92.4 -3.638
10:02 1028 30.36 857 25.31 -1.9 28.6 69 -6.9 19.6 -92.4 -3.638
10:03 1028 30.36 857 25.31 -1.8 28.7 68 -6.9 19.6 -92.4 -3.638
10:04 1028 30.36 857 25.31 -1.7 28.9 68 -6.8 19.7 -92.4 -3.638
10:05 1027 30.33 857 25.31 -1.7 29 67 -6.9 19.6 -92.4 -3.638
10:06 1027 30.33 857 25.31 -1.7 28.9 68 -6.8 19.7 -92.4 -3.638
10:07 1027 30.33 857 25.31 -1.8 28.8 69 -6.7 19.9 -92.4 -3.638
10:08 1027 30.33 857 25.31 -1.7 29 69 -6.6 20.2 -92.4 -3.638
10:09 1027 30.33 856 25.28 -1.6 29.1 69 -6.6 20 -92.4 -3.638
10:10 1027 30.33 856 25.28 -1.6 29.1 68 -6.7 19.9 -92.4 -3.638
10:11 1027 30.33 856 25.28 -1.5 29.3 68 -6.6 20.1 -92.3 -3.634
10:12 1027 30.33 856 25.28 -1.4 29.4 67 -6.7 20 -92.3 -3.634
10:13 1027 30.33 856 25.28 -1.3 29.6 68 -6.6 20.2 -92.3 -3.634
10:14 1027 30.33 856 25.28 -1.1 30 68 -6.3 20.6 -92.3 -3.634
10:15 1027 30.33 856 25.28 -0.7 30.7 67 -6.2 20.9 -92.3 -3.634
10:16 1027 30.33 856 25.28 -0.4 31.2 63 -6.6 20.2 -92.3 -3.634
10:17 1027 30.33 856 25.28 -0.3 31.4 63 -6.5 20.3 -92.3 -3.634
10:18 1027 30.33 856 25.28 -0.2 31.6 63 -6.5 20.3 -92.3 -3.634
10:19 1027 30.33 856 25.28 -0.1 31.8 62 -6.5 20.4 -92.3 -3.634
10:20 1027 30.33 856 25.28 -0.1 31.8 63 -6.4 20.6 -92.3 -3.634
10:21 1027 30.33 856 25.28 -0.2 31.6 63 -6.4 20.5 -92.3 -3.634
10:22 1027 30.33 856 25.28 -0.3 31.4 65 -6.2 20.8 -92.3 -3.634
10:23 1027 30.33 856 25.28 -0.3 31.5 64 -6.3 20.6 -92.3 -3.634
10:24 1027 30.33 856 25.28 -0.3 31.5 64 -6.3 20.7 -92.3 -3.634
10:25 1027 30.33 856 25.28 -0.4 31.3 64 -6.4 20.5 -92.3 -3.634
10:26 1027 30.33 856 25.28 -0.5 31.2 64 -6.4 20.5 -92.3 -3.634
10:27 1027 30.33 856 25.28 -0.6 30.9 64 -6.5 20.3 -92.3 -3.634
10:28 1027 30.33 856 25.28 -0.7 30.8 64 -6.6 20.1 -92.3 -3.634
10:29 1027 30.33 856 25.28 -0.7 30.8 65 -6.4 20.5 -92.3 -3.634
10:30 1027 30.33 856 25.28 -0.4 31.3 66 -6 21.2 -92.2 -3.63
10:31 1027 30.33 856 25.28 0.1 32.1 63 -6.2 20.8 -92.2 -3.63
10:32 1027 30.33 856 25.28 0.5 32.9 61 -6.2 20.9 -92.2 -3.63
10:33 1027 30.33 856 25.28 0.8 33.4 61 -6 21.2 -92.2 -3.63
10:34 1027 30.33 856 25.28 0.9 33.6 61 -5.8 21.5 -92.2 -3.63
10:35 1027 30.33 856 25.28 0.9 33.7 61 -5.7 21.7 -92.1 -3.626
10:36 1027 30.33 856 25.28 0.9 33.7 62 -5.6 21.9 -92.1 -3.626
10:37 1027 30.33 856 25.28 1 33.8 61 -5.8 21.5 -92.1 -3.626
10:38 1027 30.33 856 25.28 0.9 33.7 60 -5.9 21.4 -92.1 -3.626
10:39 1027 30.33 856 25.28 0.9 33.6 60 -6.1 21.1 -92.1 -3.626
10:40 1027 30.33 856 25.28 0.8 33.4 60 -6 21.1 -92.1 -3.626
10:41 1027 30.33 856 25.28 0.7 33.3 61 -6 21.3 -92.1 -3.626
10:42 1027 30.33 856 25.28 0.6 33.1 61 -5.9 21.3 -92.1 -3.626
10:43 1027 30.33 856 25.28 0.6 33.1 60 -6.3 20.7 -92.1 -3.626
10:44 1027 30.33 856 25.28 0.5 33 61 -6.1 21 -92.1 -3.626
10:45 1027 30.33 856 25.28 0.5 32.9 61 -6.2 20.8 -92.1 -3.626
10:46 1027 30.33 856 25.28 0.4 32.8 61 -6.3 20.6 -92.1 -3.626
10:47 1027 30.33 856 25.28 0.4 32.7 61 -6.3 20.6 -92 -3.622
10:48 1027 30.33 856 25.28 0.3 32.6 61 -6.3 20.7 -92 -3.622
10:49 1027 30.33 856 25.28 0.2 32.4 62 -6.3 20.6 -92 -3.622
10:50 1027 30.33 856 25.28 0.2 32.3 62 -6.3 20.7 -92 -3.622
10:51 1027 30.33 856 25.28 0.1 32.2 60 -6.7 19.9 -92 -3.622
10:52 1027 30.33 856 25.28 0.1 32.2 61 -6.5 20.2 -92 -3.622
10:53 1027 30.33 856 25.28 0.1 32.2 61 -6.5 20.3 -92 -3.622
10:54 1026 30.3 856 25.28 0.2 32.4 61 -6.4 20.4 -92 -3.622
10:55 1026 30.3 856 25.28 0.3 32.6 60 -6.6 20.2 -92 -3.622
10:56 1026 30.3 856 25.28 0.6 33.1 58 -6.6 20.1 -92 -3.622
10:57 1026 30.3 856 25.28 0.7 33.2 59 -6.5 20.2 -92 -3.622
10:58 1026 30.3 856 25.28 0.7 33.2 59 -6.4 20.4 -92 -3.622
10:59 1026 30.3 855 25.25 0.7 33.3 57 -6.8 19.7 -92 -3.622
11:00 1026 30.3 855 25.25 0.8 33.5 57 -6.8 19.7 -92 -3.622
11:01 1026 30.3 855 25.25 1 33.7 56 -6.7 19.9 -92 -3.622
11:02 1026 30.3 855 25.25 1.1 34 55 -6.9 19.5 -92 -3.622
11:03 1026 30.3 855 25.25 1.2 34.1 56 -6.7 19.9 -92 -3.622
11:04 1026 30.3 855 25.25 1.4 34.6 54 -6.9 19.7 -91.9 -3.618
11:05 1026 30.3 855 25.25 1.7 35 54 -6.7 19.9 -91.9 -3.618
11:06 1026 30.3 855 25.25 1.8 35.2 53 -6.8 19.7 -91.9 -3.618
11:07 1026 30.3 855 25.25 1.9 35.5 52 -6.8 19.7 -91.9 -3.618
11:08 1026 30.3 855 25.25 2.1 35.7 53 -6.6 20.1 -91.9 -3.618
11:09 1026 30.3 855 25.25 2.1 35.8 53 -6.6 20.1 -91.9 -3.618
11:10 1026 30.3 855 25.25 2.3 36.1 52 -6.5 20.2 -91.9 -3.618
11:11 1026 30.3 855 25.25 2.4 36.3 52 -6.6 20.1 -91.8 -3.614
11:12 1026 30.3 855 25.25 2.3 36.1 51 -7 19.5 -91.8 -3.614
11:13 1026 30.3 855 25.25 2.1 35.8 51 -7.1 19.2 -91.8 -3.614
11:14 1026 30.3 855 25.25 2.1 35.8 51 -7.1 19.3 -91.8 -3.614
11:15 1026 30.3 855 25.25 2.2 36 50 -7 19.3 -91.8 -3.614
11:16 1026 30.3 855 25.25 2.3 36.2 50 -7 19.4 -91.8 -3.614
11:17 1026 30.3 855 25.25 2.4 36.3 50 -7 19.3 -91.8 -3.614
11:18 1026 30.3 855 25.25 2.3 36.1 52 -6.7 19.9 -91.8 -3.614
11:19 1026 30.3 855 25.25 2 35.7 51 -7 19.3 -91.8 -3.614
11:20 1026 30.3 855 25.25 1.9 35.5 51 -7.2 19 -91.8 -3.614
11:21 1026 30.3 855 25.25 1.8 35.3 52 -7.1 19.3 -91.8 -3.614
11:22 1026 30.3 855 25.25 1.7 35.1 54 -6.6 20.1 -91.8 -3.614
11:23 1026 30.3 855 25.25 1.7 35.1 52 -7 19.3 -91.7 -3.61
11:24 1026 30.3 855 25.25 1.7 35.1 55 -6.4 20.4 -91.7 -3.61
11:25 1026 30.3 855 25.25 1.6 34.9 55 -6.5 20.3 -91.7 -3.61
11:26 1026 30.3 855 25.25 1.5 34.7 56 -6.4 20.5 -91.7 -3.61
11:27 1026 30.3 855 25.25 1.3 34.4 58 -6.1 21 -91.7 -3.61
11:28 1026 30.3 855 25.25 1.2 34.2 58 -6.2 20.9 -91.7 -3.61
11:29 1026 30.3 855 25.25 1.2 34.2 55 -6.8 19.8 -91.7 -3.61
11:30 1026 30.3 855 25.25 1.3 34.3 57 -6.3 20.6 -91.7 -3.61
11:31 1026 30.3 855 25.25 1.3 34.3 56 -6.7 20 -91.7 -3.61
11:32 1025 30.27 855 25.25 1.2 34.2 55 -6.8 19.8 -91.7 -3.61
11:33 1025 30.27 855 25.25 1.3 34.3 56 -6.6 20.2 -91.6 -3.606
11:34 1025 30.27 855 25.25 1.4 34.5 55 -6.7 19.9 -91.6 -3.606
11:35 1025 30.27 855 25.25 1.5 34.7 54 -6.8 19.8 -91.6 -3.606
11:36 1025 30.27 855 25.25 1.5 34.6 55 -6.5 20.3 -91.6 -3.606
11:37 1025 30.27 855 25.25 1.4 34.5 56 -6.5 20.4 -91.6 -3.606
11:38 1025 30.27 855 25.25 1.4 34.5 56 -6.3 20.6 -91.6 -3.606
11:39 1025 30.27 855 25.25 1.5 34.6 56 -6.5 20.4 -91.6 -3.606
11:40 1025 30.27 855 25.25 1.5 34.8 55 -6.5 20.3 -91.6 -3.606
11:41 1025 30.27 854 25.22 1.6 34.8 54 -6.8 19.8 -91.5 -3.602
11:42 1025 30.27 854 25.22 1.6 34.8 54 -6.8 19.8 -91.5 -3.602
11:43 1025 30.27 854 25.22 1.6 34.9 54 -6.7 20 -91.5 -3.602
11:44 1025 30.27 854 25.22 1.7 35 53 -6.8 19.7 -91.5 -3.602
11:45 1025 30.27 854 25.22 1.6 34.9 53 -6.9 19.5 -91.5 -3.602
11:46 1025 30.27 854 25.22 1.5 34.8 54 -6.8 19.7 -91.5 -3.602
11:47 1025 30.27 854 25.22 1.6 34.9 55 -6.4 20.6 -91.5 -3.602
11:48 1025 30.27 854 25.22 1.7 35 55 -6.3 20.7 -91.5 -3.602
11:49 1025 30.27 854 25.22 1.7 35 55 -6.5 20.3 -91.4 -3.598
11:50 1025 30.27 854 25.22 1.6 34.9 54 -6.7 19.9 -91.4 -3.598
11:51 1025 30.27 854 25.22 1.6 34.9 54 -6.7 19.9 -91.4 -3.598
11:52 1025 30.27 854 25.22 1.7 35 53 -7 19.4 -91.4 -3.598
11:53 1025 30.27 854 25.22 1.7 35.1 54 -6.6 20 -91.4 -3.598
11:54 1025 30.27 854 25.22 1.6 34.9 55 -6.4 20.5 -91.4 -3.598
11:55 1025 30.27 854 25.22 1.5 34.8 55 -6.5 20.3 -91.4 -3.598
11:56 1025 30.27 854 25.22 1.4 34.5 54 -6.8 19.7 -91.4 -3.598
11:57 1025 30.27 854 25.22 1.3 34.3 53 -7.2 19 -91.4 -3.598
11:58 1025 30.27 854 25.22 1.2 34.2 54 -7 19.4 -91.4 -3.598
11:59 1025 30.27 854 25.22 1.2 34.2 55 -6.8 19.8 -91.4 -3.598
12:00 1025 30.27 854 25.22 1.3 34.3 56 -6.7 20 -91.4 -3.598
12:01 1025 30.27 854 25.22 1.4 34.4 55 -6.6 20.1 -91.3 -3.594
12:02 1025 30.27 854 25.22 1.4 34.5 53 -7.3 18.9 -91.3 -3.594
12:03 1025 30.27 854 25.22 1.4 34.6 54 -6.9 19.6 -91.3 -3.594
12:04 1025 30.27 854 25.22 1.4 34.5 53 -7.2 19.1 -91.3 -3.594
12:05 1025 30.27 854 25.22 1.3 34.3 56 -6.6 20.1 -91.3 -3.594
12:06 1024 30.24 854 25.22 1.3 34.3 56 -6.6 20.1 -91.3 -3.594
12:07 1024 30.24 854 25.22 1.4 34.5 57 -6.2 20.9 -91.3 -3.594
12:08 1024 30.24 854 25.22 1.5 34.6 56 -6.3 20.7 -91.3 -3.594
12:09 1024 30.24 854 25.22 1.4 34.6 54 -6.9 19.6 -91.3 -3.594
12:10 1024 30.24 853 25.19 1.3 34.3 58 -6.1 21.1 -91.3 -3.594
12:11 1024 30.24 853 25.19 1.2 34.1 58 -6.2 20.9 -91.3 -3.594
12:12 1024 30.24 853 25.19 1.1 33.9 59 -6.1 21 -91.3 -3.594
12:13 1024 30.24 853 25.19 1 33.9 59 -6.1 20.9 -91.3 -3.594
12:14 1024 30.24 853 25.19 1 33.9 58 -6.3 20.6 -91.3 -3.594
12:15 1024 30.24 853 25.19 1 33.8 58 -6.2 20.8 -91.3 -3.594
12:16 1024 30.24 853 25.19 1 33.9 57 -6.4 20.4 -91.3 -3.594
12:17 1024 30.24 853 25.19 1.1 34 59 -6 21.2 -91.3 -3.594
12:18 1024 30.24 853 25.19 1.2 34.1 58 -6.2 20.8 -91.3 -3.594
12:19 1024 30.24 853 25.19 1.2 34.2 59 -6.1 21.1 -91.3 -3.594
12:20 1024 30.24 853 25.19 1.2 34.2 58 -6.3 20.7 -91.3 -3.594
12:21 1024 30.24 853 25.19 1.3 34.3 56 -6.5 20.3 -91.3 -3.594
12:22 1024 30.24 853 25.19 1.3 34.3 56 -6.5 20.3 -91.2 -3.591
12:23 1024 30.24 853 25.19 1.4 34.5 56 -6.3 20.6 -91.2 -3.591
12:24 1024 30.24 853 25.19 1.4 34.6 57 -6.2 20.8 -91.2 -3.591
12:25 1024 30.24 853 25.19 1.4 34.6 57 -6.1 21 -91.2 -3.591
12:26 1024 30.24 853 25.19 1.5 34.7 57 -6.1 21 -91.2 -3.591
12:27 1024 30.24 853 25.19 1.6 34.8 57 -6.1 21.1 -91.2 -3.591
12:28 1024 30.24 853 25.19 1.6 34.8 57 -6.1 21.1 -91.2 -3.591
12:29 1024 30.24 853 25.19 1.6 34.9 56 -6.1 20.9 -91.2 -3.591
12:30 1024 30.24 853 25.19 1.6 34.9 57 -5.9 21.4 -91.2 -3.591
12:31 1023 30.21 853 25.19 1.7 35 56 -6.2 20.8 -91.2 -3.591
12:32 1023 30.21 853 25.19 1.6 34.9 59 -5.7 21.8 -91.2 -3.591
12:33 1023 30.21 853 25.19 1.6 34.9 59 -5.7 21.8 -91.2 -3.591
12:34 1023 30.21 853 25.19 1.6 34.9 58 -5.8 21.5 -91.2 -3.591
12:35 1023 30.21 853 25.19 1.6 35 58 -5.8 21.5 -91.2 -3.591
12:36 1023 30.21 852 25.16 1.7 35 57 -5.9 21.4 -91.2 -3.591
12:37 1023 30.21 852 25.16 1.7 35 56 -6.2 20.9 -91.2 -3.591
12:38 1023 30.21 852 25.16 1.7 35 59 -5.6 21.9 -91.2 -3.591
12:39 1023 30.21 852 25.16 1.8 35.2 56 -6 21.1 -91.2 -3.591
12:40 1023 30.21 852 25.16 1.9 35.3 55 -6.1 21 -91.2 -3.591
12:41 1023 30.21 852 25.16 1.9 35.5 55 -6.1 21.1 -91.2 -3.591
12:42 1023 30.21 852 25.16 2.1 35.8 55 -6 21.2 -91.1 -3.587
12:43 1023 30.21 852 25.16 2.1 35.8 55 -6 21.3 -91.1 -3.587
12:44 1023 30.21 852 25.16 2.1 35.8 56 -5.8 21.6 -91.1 -3.587
12:45 1023 30.21 852 25.16 2.2 35.9 55 -6 21.2 -91.1 -3.587
12:46 1023 30.21 852 25.16 2.2 36 54 -6.1 21.1 -91.1 -3.587
12:47 1023 30.21 852 25.16 2.2 36 53 -6.5 20.4 -91.1 -3.587
12:48 1023 30.21 852 25.16 2.3 36.1 53 -6.3 20.7 -91.1 -3.587
12:49 1023 30.21 852 25.16 2.3 36.1 54 -6.2 20.9 -91.1 -3.587
12:50 1023 30.21 852 25.16 2.2 36 53 -6.3 20.7 -91.1 -3.587
12:51 1023 30.21 852 25.16 2.2 36 54 -6.2 20.9 -91.1 -3.587
12:52 1023 30.21 852 25.16 2.2 36 54 -6.2 20.8 -91.1 -3.587
12:53 1023 30.21 852 25.16 2.2 36 53 -6.4 20.5 -91.1 -3.587
12:54 1023 30.21 852 25.16 2.2 35.9 55 -6 21.2 -91.1 -3.587
12:55 1023 30.21 852 25.16 2.3 36.1 56 -5.7 21.7 -91.1 -3.587
12:56 1023 30.21 852 25.16 2.4 36.3 56 -5.5 22 -91.1 -3.587
12:57 1023 30.21 852 25.16 2.5 36.6 54 -5.7 21.7 -91.1 -3.587
12:58 1023 30.21 852 25.16 2.6 36.7 53 -6 21.2 -91.1 -3.587
12:59 1022 30.18 852 25.16 2.6 36.7 51 -6.6 20.1 -91.1 -3.587
13:00 1022 30.18 852 25.16 2.6 36.8 51 -6.4 20.4 -91.1 -3.587
13:01 1022 30.18 852 25.16 2.7 36.8 52 -6.2 20.9 -91.1 -3.587
13:02 1022 30.18 852 25.16 2.7 36.8 55 -5.4 22.3 -91.1 -3.587
13:03 1022 30.18 852 25.16 2.8 37 50 -6.6 20.2 -91.1 -3.587
13:04 1022 30.18 851 25.13 2.8 37 52 -6.2 20.9 -91.1 -3.587
13:05 1022 30.18 851 25.13 2.9 37.2 50 -6.5 20.3 -91.1 -3.587
13:06 1022 30.18 852 25.16 3 37.5 50 -6.5 20.4 -91.1 -3.587
13:07 1022 30.18 852 25.16 3.2 37.7 49 -6.6 20.2 -91.1 -3.587
13:08 1022 30.18 852 25.16 3.4 38 49 -6.4 20.4 -91 -3.583
13:09 1022 30.18 851 25.13 3.8 38.8 48 -6.3 20.7 -91 -3.583
13:10 1022 30.18 851 25.13 3.8 38.9 47 -6.4 20.4 -91 -3.583
13:11 1022 30.18 851 25.13 3.7 38.6 47 -6.5 20.3 -91 -3.583
13:12 1022 30.18 851 25.13 3.6 38.5 49 -6.2 20.8 -91 -3.583
13:13 1022 30.18 851 25.13 3.7 38.7 46 -6.7 19.9 -91 -3.583
13:14 1022 30.18 851 25.13 3.8 38.9 46 -6.6 20.1 -91 -3.583
13:15 1022 30.18 851 25.13 3.9 39 46 -6.6 20.2 -91 -3.583
13:16 1022 30.18 851 25.13 4 39.3 47 -6.4 20.5 -91 -3.583
13:17 1022 30.18 851 25.13 4.2 39.5 47 -6.3 20.7 -90.9 -3.579
13:18 1022 30.18 851 25.13 4.2 39.5 48 -5.8 21.6 -90.9 -3.579
13:19 1022 30.18 851 25.13 4 39.3 50 -5.5 22.2 -90.9 -3.579
13:20 1022 30.18 851 25.13 3.9 39 50 -5.6 21.9 -90.9 -3.579
13:21 1022 30.18 851 25.13 3.7 38.7 51 -5.6 22 -90.9 -3.579
13:22 1022 30.18 851 25.13 3.6 38.6 49 -6.1 21 -90.9 -3.579
13:23 1022 30.18 851 25.13 3.6 38.4 51 -5.7 21.8 -90.9 -3.579
13:24 1022 30.18 851 25.13 3.6 38.4 53 -5.2 22.6 -90.9 -3.579
13:25 1022 30.18 851 25.13 3.6 38.4 51 -5.7 21.8 -90.8 -3.575
13:26 1022 30.18 851 25.13 3.5 38.4 51 -5.6 21.9 -90.8 -3.575
13:27 1022 30.18 851 25.13 3.5 38.3 52 -5.5 22 -90.8 -3.575
13:28 1022 30.18 851 25.13 3.4 38.1 53 -5.3 22.5 -90.8 -3.575
13:29 1022 30.18 851 25.13 3.4 38 52 -5.6 22 -90.8 -3.575
13:30 1022 30.18 851 25.13 3.3 38 52 -5.6 21.9 -90.8 -3.575
13:31 1022 30.18 851 25.13 3.3 37.9 53 -5.4 22.2 -90.8 -3.575
13:32 1022 30.18 851 25.13 3.2 37.7 55 -5.1 22.9 -90.8 -3.575
13:33 1022 30.18 851 25.13 3 37.4 53 -5.6 21.9 -90.8 -3.575
13:34 1022 30.18 851 25.13 2.9 37.3 55 -5.1 22.8 -90.8 -3.575
13:35 1022 30.18 851 25.13 2.8 37 56 -5.2 22.7 -90.8 -3.575
13:36 1022 30.18 851 25.13 2.7 36.9 55 -5.4 22.2 -90.8 -3.575
13:37 1022 30.18 851 25.13 2.6 36.6 56 -5.3 22.5 -90.8 -3.575
13:38 1022 30.18 851 25.13 2.4 36.4 57 -5.2 22.6 -90.8 -3.575
13:39 1022 30.18 851 25.13 2.3 36.2 57 -5.3 22.4 -90.8 -3.575
13:40 1022 30.18 851 25.13 2 35.6 56 -5.8 21.5 -90.8 -3.575
13:41 1022 30.18 851 25.13 1.8 35.3 59 -5.4 22.2 -90.8 -3.575
13:42 1022 30.18 851 25.13 1.7 35.1 60 -5.2 22.6 -90.8 -3.575
13:43 1022 30.18 851 25.13 1.7 35.1 59 -5.5 22.1 -90.7 -3.571
13:44 1021 30.15 851 25.13 1.6 34.9 59 -5.6 21.9 -90.7 -3.571
13:45 1021 30.15 851 25.13 1.5 34.7 59 -5.6 22 -90.7 -3.571
13:46 1021 30.15 851 25.13 1.4 34.4 59 -5.8 21.5 -90.8 -3.575
13:47 1021 30.15 851 25.13 1.3 34.3 60 -5.6 21.9 -90.8 -3.575
13:48 1021 30.15 851 25.13 1.2 34.2 59 -5.9 21.3 -90.8 -3.575
13:49 1021 30.15 851 25.13 1.3 34.3 59 -5.8 21.5 -90.7 -3.571
13:50 1021 30.15 851 25.13 1.3 34.4 59 -5.9 21.4 -90.7 -3.571
13:51 1021 30.15 850 25.1 1.5 34.6 57 -6.1 21 -90.7 -3.571
13:52 1021 30.15 850 25.1 1.6 34.8 59 -5.6 21.8 -90.7 -3.571
13:53 1021 30.15 850 25.1 1.7 35.1 59 -5.5 22 -90.7 -3.571
13:54 1021 30.15 850 25.1 1.7 35.1 58 -5.8 21.6 -90.7 -3.571
13:55 1021 30.15 850 25.1 1.7 35.1 57 -5.9 21.3 -90.8 -3.575
13:56 1021 30.15 850 25.1 1.6 35 57 -6 21.2 -90.8 -3.575
13:57 1021 30.15 850 25.1 1.6 34.9 57 -6 21.2 -90.8 -3.575
13:58 1021 30.15 850 25.1 1.6 34.9 57 -5.9 21.4 -90.8 -3.575
13:59 1021 30.15 850 25.1 1.6 34.9 57 -6 21.3 -90.8 -3.575
14:00 1021 30.15 850 25.1 1.6 34.9 58 -5.8 21.5 -90.8 -3.575
14:01 1021 30.15 850 25.1 1.5 34.7 58 -5.8 21.6 -90.8 -3.575
14:02 1021 30.15 850 25.1 1.4 34.5 58 -5.9 21.4 -90.8 -3.575
14:03 1021 30.15 850 25.1 1.3 34.3 60 -5.7 21.8 -90.8 -3.575
14:04 1021 30.15 850 25.1 1.3 34.3 60 -5.5 22 -90.8 -3.575
14:05 1021 30.15 850 25.1 1.3 34.3 60 -5.7 21.7 -90.8 -3.575
14:06 1021 30.15 850 25.1 1.3 34.4 60 -5.7 21.8 -90.8 -3.575
14:07 1021 30.15 850 25.1 1.3 34.4 60 -5.6 21.9 -90.8 -3.575
14:08 1021 30.15 850 25.1 1.4 34.5 60 -5.6 21.9 -90.8 -3.575
14:09 1021 30.15 850 25.1 1.4 34.6 59 -5.8 21.5 -90.8 -3.575
14:10 1021 30.15 850 25.1 1.5 34.7 60 -5.4 22.3 -90.8 -3.575
14:11 1021 30.15 850 25.1 1.6 34.9 59 -5.5 22.1 -90.8 -3.575
14:12 1020 30.12 850 25.1 1.6 34.9 57 -5.9 21.3 -90.8 -3.575
14:13 1020 30.12 850 25.1 1.7 35 60 -5.3 22.4 -90.8 -3.575
14:14 1020 30.12 850 25.1 1.7 35.1 58 -5.7 21.7 -90.8 -3.575
14:15 1020 30.12 850 25.1 1.8 35.2 59 -5.5 22.2 -90.8 -3.575
14:16 1020 30.12 850 25.1 1.9 35.4 58 -5.5 22.1 -90.8 -3.575
14:17 1020 30.12 850 25.1 2 35.6 57 -5.6 21.9 -90.8 -3.575
14:18 1020 30.12 850 25.1 2 35.6 57 -5.5 22.1 -90.8 -3.575
14:19 1020 30.12 850 25.1 2 35.6 59 -5.3 22.5 -90.8 -3.575
14:20 1020 30.12 850 25.1 2 35.6 58 -5.5 22.2 -90.8 -3.575
14:21 1020 30.12 850 25.1 1.9 35.5 57 -5.7 21.7 -90.8 -3.575
14:22 1020 30.12 850 25.1 1.9 35.4 56 -6 21.2 -90.8 -3.575
14:23 1020 30.12 850 25.1 1.8 35.2 57 -5.9 21.3 -90.8 -3.575
14:24 1020 30.12 850 25.1 1.7 35.1 57 -5.9 21.4 -90.8 -3.575
14:25 1020 30.12 850 25.1 1.8 35.2 56 -6.2 20.9 -90.8 -3.575
14:26 1020 30.12 849 25.07 1.8 35.3 55 -6.2 20.8 -90.8 -3.575
14:27 1020 30.12 849 25.07 1.7 35.1 57 -5.9 21.3 -90.8 -3.575
14:28 1020 30.12 849 25.07 1.6 34.9 57 -5.9 21.3 -90.8 -3.575
14:29 1020 30.12 849 25.07 1.6 34.8 57 -5.9 21.3 -90.8 -3.575
14:30 1020 30.12 849 25.07 1.7 35.1 57 -5.9 21.5 -90.8 -3.575
14:31 1020 30.12 849 25.07 1.9 35.5 55 -6.2 20.9 -90.8 -3.575
14:32 1020 30.12 849 25.07 2.1 35.8 55 -6 21.1 -90.8 -3.575
14:33 1020 30.12 849 25.07 2.1 35.7 56 -5.7 21.7 -90.8 -3.575
14:34 1020 30.12 849 25.07 2.1 35.7 56 -5.9 21.4 -90.8 -3.575
14:35 1020 30.12 849 25.07 2.2 36 56 -5.7 21.8 -90.8 -3.575
14:36 1020 30.12 849 25.07 2.3 36.1 56 -5.5 22 -90.8 -3.575
14:37 1020 30.12 849 25.07 2.4 36.3 54 -5.9 21.3 -90.8 -3.575
14:38 1020 30.12 849 25.07 2.4 36.3 54 -5.9 21.4 -90.8 -3.575
14:39 1020 30.12 849 25.07 2.4 36.3 55 -5.8 21.6 -90.8 -3.575
14:40 1020 30.12 849 25.07 2.4 36.3 55 -5.8 21.6 -90.8 -3.575
14:41 1020 30.12 849 25.07 2.4 36.4 55 -5.6 21.9 -90.8 -3.575
14:42 1020 30.12 849 25.07 2.5 36.5 54 -5.8 21.5 -90.8 -3.575
14:43 1019 30.09 849 25.07 2.5 36.5 56 -5.5 22.2 -90.7 -3.571
14:44 1019 30.09 849 25.07 2.6 36.7 53 -6 21.2 -90.7 -3.571
14:45 1019 30.09 849 25.07 2.6 36.6 52 -6.2 20.8 -90.7 -3.571
14:46 1019 30.09 849 25.07 2.4 36.3 54 -5.9 21.3 -90.7 -3.571
14:47 1019 30.09 849 25.07 2.3 36.1 57 -5.3 22.4 -90.7 -3.571
14:48 1019 30.09 849 25.07 2.2 36 56 -5.7 21.7 -90.7 -3.571
14:49 1019 30.09 849 25.07 2.2 36 56 -5.6 22 -90.7 -3.571
14:50 1019 30.09 849 25.07 2.2 36 55 -5.9 21.3 -90.7 -3.571
14:51 1019 30.09 849 25.07 2.3 36.1 54 -6 21.2 -90.7 -3.571
14:52 1019 30.09 849 25.07 2.4 36.3 55 -5.7 21.7 -90.7 -3.571
14:53 1019 30.09 849 25.07 2.5 36.4 55 -5.7 21.7 -90.7 -3.571
14:54 1019 30.09 848 25.04 2.6 36.7 53 -6 21.1 -90.7 -3.571
14:55 1019 30.09 848 25.04 2.7 36.8 54 -5.9 21.5 -90.7 -3.571
14:56 1019 30.09 849 25.07 2.7 36.8 53 -5.9 21.4 -90.7 -3.571
14:57 1019 30.09 849 25.07 2.8 37 52 -6.1 21.1 -90.7 -3.571
14:58 1019 30.09 849 25.07 2.8 37.1 53 -5.9 21.4 -90.7 -3.571
14:59 1019 30.09 849 25.07 2.7 36.9 52 -6.1 21.1 -90.7 -3.571
15:00 1019 30.09 849 25.07 2.6 36.8 53 -5.9 21.4 -90.7 -3.571
15:01 1019 30.09 849 25.07 2.7 36.9 53 -6 21.1 -90.7 -3.571
15:02 1019 30.09 849 25.07 2.9 37.2 52 -6 21.2 -90.7 -3.571
15:03 1019 30.09 849 25.07 3.1 37.6 53 -5.5 22.1 -90.6 -3.567
15:04 1019 30.09 848 25.04 3 37.4 55 -5.3 22.5 -90.7 -3.571
15:05 1019 30.09 849 25.07 2.9 37.3 54 -5.6 22 -90.7 -3.571
15:06 1019 30.09 849 25.07 3.1 37.5 55 -5.1 22.9 -90.6 -3.567
15:07 1019 30.09 848 25.04 3.3 37.9 54 -5.2 22.7 -90.6 -3.567
15:08 1019 30.09 848 25.04 3.3 37.9 54 -5.2 22.6 -90.6 -3.567
15:09 1019 30.09 848 25.04 3.3 37.9 54 -5.3 22.5 -90.6 -3.567
15:10 1019 30.09 848 25.04 3.3 37.9 52 -5.6 21.9 -90.6 -3.567
15:11 1019 30.09 848 25.04 3.3 37.9 50 -6.1 21 -90.6 -3.567
15:12 1019 30.09 848 25.04 3.3 38 50 -6 21.1 -90.6 -3.567
15:13 1019 30.09 848 25.04 3.3 38 51 -5.9 21.4 -90.6 -3.567
15:14 1019 30.09 848 25.04 3.2 37.8 51 -5.9 21.3 -90.6 -3.567
15:15 1019 30.09 848 25.04 3.1 37.5 56 -4.9 23.1 -90.6 -3.567
15:16 1019 30.09 848 25.04 2.8 37.1 52 -6.1 21.1 -90.6 -3.567
15:17 1019 30.09 848 25.04 2.6 36.6 53 -6.1 21 -90.6 -3.567
15:18 1019 30.09 848 25.04 2.5 36.5 54 -6 21.3 -90.6 -3.567
15:19 1019 30.09 848 25.04 2.6 36.6 54 -5.8 21.6 -90.6 -3.567
15:20 1019 30.09 848 25.04 2.5 36.5 56 -5.5 22.1 -90.6 -3.567
15:21 1019 30.09 848 25.04 2.4 36.3 54 -5.9 21.3 -90.6 -3.567
15:22 1019 30.09 848 25.04 2.2 36 55 -5.9 21.3 -90.6 -3.567
15:23 1019 30.09 848 25.04 2.1 35.8 57 -5.6 22 -90.6 -3.567
15:24 1019 30.09 848 25.04 2 35.6 56 -6 21.2 -90.6 -3.567
15:25 1019 30.09 848 25.04 1.9 35.4 56 -6 21.2 -90.6 -3.567
15:26 1019 30.09 848 25.04 1.9 35.4 56 -5.9 21.4 -90.6 -3.567
15:27 1019 30.09 848 25.04 1.8 35.3 60 -5.2 22.6 -90.6 -3.567
15:28 1019 30.09 848 25.04 1.6 34.9 61 -5.2 22.7 -90.6 -3.567
15:29 1019 30.09 848 25.04 1.2 34.2 62 -5.4 22.4 -90.6 -3.567
15:30 1019 30.09 848 25.04 0.9 33.6 62 -5.6 22 -90.6 -3.567
15:31 1019 30.09 848 25.04 0.7 33.3 63 -5.5 22 -90.6 -3.567
15:32 1019 30.09 848 25.04 0.6 33 64 -5.5 22 -90.6 -3.567
15:33 1019 30.09 848 25.04 0.4 32.8 65 -5.3 22.4 -90.5 -3.563
15:34 1019 30.09 848 25.04 0.2 32.4 65 -5.6 21.9 -90.5 -3.563
15:35 1019 30.09 848 25.04 0 32.1 66 -5.6 21.8 -90.5 -3.563
15:36 1019 30.09 848 25.04 -0.1 31.8 66 -5.6 21.8 -90.5 -3.563
15:37 1019 30.09 848 25.04 -0.3 31.5 68 -5.6 22 -90.5 -3.563
15:38 1019 30.09 848 25.04 -0.5 31.2 67 -5.8 21.5 -90.4 -3.559
15:39 1019 30.09 848 25.04 -0.5 31.1 67 -5.9 21.4 -90.4 -3.559
15:40 1019 30.09 848 25.04 -0.5 31.1 67 -6 21.3 -90.4 -3.559
15:41 1019 30.09 848 25.04 -0.5 31.2 66 -6 21.2 -90.4 -3.559
15:42 1019 30.09 848 25.04 -0.5 31.1 67 -5.8 21.6 -90.4 -3.559
15:43 1019 30.09 848 25.04 -0.6 31 68 -5.7 21.7 -90.4 -3.559
15:44 1019 30.09 848 25.04 -0.7 30.8 69 -5.7 21.8 -90.4 -3.559
15:45 1019 30.09 848 25.04 -0.7 30.7 69 -5.8 21.6 -90.4 -3.559
15:46 1019 30.09 848 25.04 -0.8 30.6 68 -5.9 21.4 -90.4 -3.559
15:47 1019 30.09 849 25.07 -0.8 30.6 68 -5.9 21.4 -90.4 -3.559
15:48 1019 30.09 849 25.07 -0.7 30.7 68 -5.9 21.4 -90.4 -3.559
15:49 1019 30.09 848 25.04 -0.7 30.8 68 -5.9 21.4 -90.4 -3.559
15:50 1019 30.09 848 25.04 -0.7 30.8 68 -6 21.3 -90.5 -3.563
15:51 1019 30.09 848 25.04 -0.7 30.8 67 -6 21.2 -90.5 -3.563
15:52 1019 30.09 848 25.04 -0.6 30.8 68 -5.8 21.5 -90.5 -3.563
15:53 1019 30.09 848 25.04 -0.7 30.7 68 -5.8 21.5 -90.5 -3.563
15:54 1019 30.09 848 25.04 -0.8 30.6 69 -5.8 21.6 -90.5 -3.563
15:55 1019 30.09 848 25.04 -0.9 30.4 69 -5.9 21.4 -90.5 -3.563
15:56 1019 30.09 848 25.04 -1 30.2 69 -6 21.2 -90.5 -3.563
15:57 1019 30.09 848 25.04 -1.1 30 69 -6 21.2 -90.5 -3.563
15:58 1019 30.09 849 25.07 -1.2 29.8 70 -6.1 21.1 -90.5 -3.563
15:59 1019 30.09 849 25.07 -1.3 29.7 70 -6.1 21 -90.5 -3.563
16:00 1019 30.09 849 25.07 -1.3 29.6 71 -6 21.2 -90.5 -3.563
16:01 1019 30.09 849 25.07 -1.4 29.6 70 -6.1 21 -90.5 -3.563
16:02 1019 30.09 849 25.07 -1.4 29.5 70 -6.2 20.9 -90.5 -3.563
16:03 1019 30.09 849 25.07 -1.4 29.4 71 -6.1 21 -90.5 -3.563
16:04 1019 30.09 849 25.07 -1.5 29.3 72 -6 21.3 -90.5 -3.563
16:05 1019 30.09 849 25.07 -1.7 29 72 -6.1 21 -90.5 -3.563
16:06 1019 30.09 849 25.07 -1.8 28.7 72 -6.2 20.9 -90.5 -3.563
16:07 1019 30.09 849 25.07 -1.9 28.6 73 -6.2 20.8 -90.5 -3.563
16:08 1019 30.09 849 25.07 -1.9 28.6 73 -6.1 21 -90.5 -3.563
16:09 1020 30.12 849 25.07 -2 28.4 74 -6.1 21.1 -90.5 -3.563
16:10 1019 30.09 849 25.07 -2.1 28.2 74 -6.1 21 -90.5 -3.563
16:11 1019 30.09 848 25.04 -2.2 28.1 74 -6.2 20.8 -90.5 -3.563
16:12 1019 30.09 848 25.04 -2.1 28.1 74 -6.2 20.8 -90.5 -3.563
16:13 1019 30.09 849 25.07 -2.2 28.1 76 -5.9 21.4 -90.5 -3.563
16:14 1019 30.09 849 25.07 -2.3 27.9 76 -5.9 21.3 -90.5 -3.563
16:15 1019 30.09 848 25.04 -2.3 27.8 76 -6.1 21.1 -90.5 -3.563
16:16 1019 30.09 848 25.04 -2.2 28 73 -6.4 20.5 -90.5 -3.563
16:17 1019 30.09 848 25.04 -2.1 28.3 73 -6.2 20.9 -90.5 -3.563
16:18 1019 30.09 848 25.04 -2 28.3 76 -5.8 21.6 -90.5 -3.563
16:19 1019 30.09 848 25.04 -2.3 27.9 76 -6 21.2 -90.5 -3.563
16:20 1019 30.09 848 25.04 -2.4 27.7 76 -6.1 21 -90.5 -3.563
16:21 1019 30.09 848 25.04 -2.5 27.6 76 -6.1 20.9 -90.5 -3.563
16:22 1019 30.09 848 25.04 -2.5 27.4 78 -5.9 21.5 -90.5 -3.563
16:23 1019 30.09 848 25.04 -2.7 27.1 79 -5.9 21.3 -90.5 -3.563
16:24 1019 30.09 848 25.04 -2.8 27 78 -6 21.1 -90.5 -3.563
16:25 1019 30.09 848 25.04 -2.7 27.1 78 -6 21.2 -90.4 -3.559
16:26 1019 30.09 848 25.04 -2.7 27.1 79 -5.9 21.3 -90.4 -3.559
16:27 1019 30.09 848 25.04 -2.8 27 79 -6 21.2 -90.4 -3.559
16:28 1019 30.09 848 25.04 -2.7 27.2 79 -5.8 21.5 -90.4 -3.559
16:29 1019 30.09 848 25.04 -2.6 27.3 78 -5.9 21.3 -90.4 -3.559
16:30 1019 30.09 848 25.04 -2.5 27.5 77 -6 21.2 -90.4 -3.559
16:31 1019 30.09 848 25.04 -2.5 27.5 77 -5.9 21.3 -90.4 -3.559
16:32 1019 30.09 848 25.04 -2.4 27.6 77 -5.9 21.3 -90.5 -3.563
16:33 1019 30.09 848 25.04 -2.4 27.6 77 -5.9 21.3 -90.5 -3.563
16:34 1019 30.09 848 25.04 -2.4 27.8 77 -5.8 21.5 -90.5 -3.563
16:35 1019 30.09 848 25.04 -2.3 27.8 77 -5.9 21.3 -90.5 -3.563
16:36 1019 30.09 848 25.04 -2.3 27.9 76 -5.9 21.3 -90.5 -3.563
16:37 1019 30.09 848 25.04 -2.2 28 75 -6 21.2 -90.5 -3.563
16:38 1018 30.06 848 25.04 -2.1 28.2 75 -6 21.1 -90.5 -3.563
16:39 1018 30.06 848 25.04 -2 28.4 75 -5.9 21.4 -90.5 -3.563
16:40 1018 30.06 848 25.04 -1.9 28.6 74 -5.9 21.4 -90.5 -3.563
16:41 1018 30.06 848 25.04 -1.8 28.8 74 -5.9 21.4 -90.5 -3.563
16:42 1019 30.09 848 25.04 -1.8 28.8 74 -5.8 21.6 -90.5 -3.563
16:43 1019 30.09 848 25.04 -1.8 28.7 75 -5.8 21.6 -90.6 -3.567
16:44 1019 30.09 848 25.04 -1.8 28.7 75 -5.7 21.8 -90.6 -3.567
16:45 1019 30.09 848 25.04 -1.9 28.5 75 -5.7 21.7 -90.6 -3.567
16:46 1019 30.09 848 25.04 -1.9 28.5 75 -5.8 21.6 -90.6 -3.567
16:47 1019 30.09 848 25.04 -1.9 28.5 75 -5.8 21.6 -90.6 -3.567
16:48 1019 30.09 848 25.04 -1.9 28.6 75 -5.7 21.7 -90.6 -3.567
16:49 1019 30.09 848 25.04 -1.8 28.7 75 -5.8 21.6 -90.6 -3.567
16:50 1019 30.09 848 25.04 -1.9 28.6 75 -5.8 21.6 -90.6 -3.567
16:51 1019 30.09 848 25.04 -1.9 28.5 75 -5.8 21.5 -90.6 -3.567
16:52 1019 30.09 848 25.04 -1.9 28.5 75 -5.8 21.6 -90.6 -3.567
16:53 1019 30.09 848 25.04 -2 28.4 75 -5.9 21.4 -90.6 -3.567
16:54 1019 30.09 848 25.04 -2.1 28.2 75 -5.9 21.3 -90.6 -3.567
16:55 1019 30.09 848 25.04 -2.1 28.2 75 -5.9 21.3 -90.6 -3.567
16:56 1019 30.09 848 25.04 -2.2 28.1 75 -6 21.3 -90.6 -3.567
16:57 1019 30.09 848 25.04 -2.2 28.1 75 -6 21.2 -90.6 -3.567
16:58 1019 30.09 848 25.04 -2.2 28.1 75 -6.1 21 -90.6 -3.567
16:59 1019 30.09 848 25.04 -2.1 28.2 74 -6.1 20.9 -90.6 -3.567
17:00 1019 30.09 848 25.04 -2.1 28.2 74 -6.2 20.9 -90.6 -3.567
17:01 1019 30.09 848 25.04 -2.1 28.2 74 -6.1 20.9 -90.6 -3.567
17:02 1019 30.09 848 25.04 -2.1 28.1 74 -6.2 20.9 -90.6 -3.567
17:03 1019 30.09 848 25.04 -2.1 28.1 74 -6.2 20.9 -90.6 -3.567
17:04 1019 30.09 848 25.04 -2.2 28.1 74 -6.2 20.8 -90.6 -3.567
17:05 1019 30.09 848 25.04 -2.2 28.1 74 -6.2 20.8 -90.6 -3.567
17:06 1019 30.09 848 25.04 -2.2 28 74 -6.2 20.9 -90.6 -3.567
17:07 1019 30.09 848 25.04 -2.3 27.8 75 -6.1 20.9 -90.6 -3.567
17:08 1019 30.09 848 25.04 -2.4 27.6 76 -6.2 20.9 -90.6 -3.567
17:09 1019 30.09 848 25.04 -2.5 27.5 76 -6.2 20.8 -90.6 -3.567
17:10 1019 30.09 848 25.04 -2.5 27.5 76 -6.2 20.9 -90.6 -3.567
17:11 1019 30.09 848 25.04 -2.5 27.4 76 -6.2 20.9 -90.6 -3.567
17:12 1019 30.09 848 25.04 -2.7 27.2 77 -6.1 20.9 -90.6 -3.567
17:13 1019 30.09 848 25.04 -2.8 27 77 -6.2 20.8 -90.6 -3.567
17:14 1019 30.09 848 25.04 -2.9 26.8 77 -6.3 20.6 -90.6 -3.567
17:15 1019 30.09 848 25.04 -3 26.7 77 -6.4 20.5 -90.6 -3.567
17:16 1019 30.09 848 25.04 -3 26.5 77 -6.5 20.2 -90.6 -3.567
17:17 1019 30.09 848 25.04 -3.1 26.4 78 -6.5 20.3 -90.6 -3.567
17:18 1019 30.09 848 25.04 -3.2 26.3 78 -6.5 20.4 -90.6 -3.567
17:19 1019 30.09 848 25.04 -3.2 26.3 79 -6.3 20.6 -90.6 -3.567
17:20 1019 30.09 848 25.04 -3.2 26.3 79 -6.3 20.6 -90.6 -3.567
17:21 1019 30.09 848 25.04 -3.2 26.3 79 -6.4 20.5 -90.6 -3.567
17:22 1019 30.09 848 25.04 -3.1 26.4 78 -6.3 20.6 -90.6 -3.567
17:23 1019 30.09 848 25.04 -3.1 26.4 78 -6.4 20.5 -90.6 -3.567
17:24 1019 30.09 848 25.04 -3.1 26.5 78 -6.4 20.5 -90.6 -3.567
17:25 1019 30.09 848 25.04 -3.1 26.5 78 -6.4 20.6 -90.6 -3.567
17:26 1019 30.09 848 25.04 -3.1 26.5 78 -6.3 20.6 -90.6 -3.567
17:27 1019 30.09 848 25.04 -3.1 26.5 78 -6.4 20.5 -90.6 -3.567
17:28 1019 30.09 848 25.04 -3.1 26.5 78 -6.4 20.6 -90.6 -3.567
17:29 1019 30.09 848 25.04 -3.1 26.4 78 -6.4 20.6 -90.6 -3.567
17:30 1019 30.09 848 25.04 -3 26.5 78 -6.4 20.5 -90.6 -3.567
17:31 1019 30.09 848 25.04 -3.1 26.5 77 -6.5 20.3 -90.6 -3.567
17:32 1019 30.09 848 25.04 -3.2 26.3 78 -6.5 20.3 -90.6 -3.567
17:33 1019 30.09 848 25.04 -3.4 25.9 78 -6.7 19.9 -90.6 -3.567
17:34 1019 30.09 848 25.04 -3.5 25.8 78 -6.7 19.9 -90.6 -3.567
17:35 1019 30.09 848 25.04 -3.5 25.8 78 -6.8 19.8 -90.6 -3.567
17:36 1019 30.09 848 25.04 -3.4 25.8 79 -6.6 20.1 -90.7 -3.571
17:37 1019 30.09 848 25.04 -3.3 26.1 78 -6.6 20.2 -90.7 -3.571
17:38 1019 30.09 848 25.04 -3.2 26.2 77 -6.7 20 -90.7 -3.571
17:39 1019 30.09 848 25.04 -3.3 26 79 -6.6 20.2 -90.7 -3.571
17:40 1019 30.09 848 25.04 -3.3 26 78 -6.6 20.2 -90.7 -3.571
17:41 1019 30.09 848 25.04 -3.2 26.3 78 -6.6 20.2 -90.7 -3.571
17:42 1019 30.09 848 25.04 -3 26.6 77 -6.5 20.3 -90.7 -3.571
17:43 1019 30.09 848 25.04 -2.9 26.7 76 -6.6 20.1 -90.7 -3.571
17:44 1019 30.09 848 25.04 -3 26.7 76 -6.6 20.1 -90.7 -3.571
17:45 1019 30.09 848 25.04 -3 26.5 76 -6.7 20 -90.7 -3.571
17:46 1019 30.09 848 25.04 -3 26.6 76 -6.7 20 -90.7 -3.571
17:47 1019 30.09 848 25.04 -3.1 26.4 76 -6.7 19.9 -90.7 -3.571
17:48 1019 30.09 848 25.04 -3.1 26.3 77 -6.7 19.9 -90.7 -3.571
17:49 1019 30.09 848 25.04 -3.2 26.3 77 -6.7 20 -90.7 -3.571
17:50 1019 30.09 848 25.04 -3.2 26.3 77 -6.7 19.9 -90.7 -3.571
17:51 1019 30.09 848 25.04 -2.9 26.8 75 -6.7 20 -90.7 -3.571
17:52 1019 30.09 848 25.04 -2.6 27.3 74 -6.7 20 -90.8 -3.575
17:53 1019 30.09 848 25.04 -2.4 27.6 73 -6.6 20.1 -90.8 -3.575
17:54 1019 30.09 848 25.04 -2.3 27.9 72 -6.6 20.1 -90.8 -3.575
17:55 1019 30.09 848 25.04 -2.4 27.6 72 -6.8 19.8 -90.8 -3.575
17:56 1019 30.09 848 25.04 -2.9 26.7 74 -6.9 19.5 -90.8 -3.575
17:57 1019 30.09 848 25.04 -3.4 25.8 78 -6.8 19.8 -90.8 -3.575
17:58 1019 30.09 848 25.04 -3.5 25.6 77 -7 19.4 -90.8 -3.575
17:59 1019 30.09 848 25.04 -3.7 25.3 78 -7 19.5 -90.8 -3.575
18:00 1019 30.09 848 25.04 -3.7 25.3 79 -6.8 19.8 -90.8 -3.575
18:01 1019 30.09 848 25.04 -3.5 25.7 79 -6.7 19.9 -90.8 -3.575
18:02 1019 30.09 848 25.04 -3.2 26.2 77 -6.7 19.9 -90.9 -3.579
18:03 1019 30.09 848 25.04 -3 26.5 75 -6.8 19.8 -90.9 -3.579
18:04 1019 30.09 848 25.04 -2.9 26.8 74 -6.9 19.7 -90.9 -3.579
18:05 1019 30.09 848 25.04 -3 26.6 75 -6.9 19.6 -90.9 -3.579
18:06 1019 30.09 848 25.04 -3.1 26.5 76 -6.7 19.9 -90.9 -3.579
18:07 1019 30.09 848 25.04 -2.7 27.2 74 -6.7 20 -90.9 -3.579
18:08 1019 30.09 848 25.04 -2.3 27.8 71 -6.9 19.5 -91 -3.583
18:09 1019 30.09 848 25.04 -2.5 27.4 72 -6.9 19.5 -91 -3.583
18:10 1019 30.09 848 25.04 -2.9 26.8 74 -6.9 19.5 -91 -3.583
18:11 1019 30.09 848 25.04 -3.1 26.5 75 -7 19.4 -91 -3.583
18:12 1019 30.09 848 25.04 -3.2 26.2 75 -7.1 19.3 -91 -3.583
18:13 1019 30.09 848 25.04 -3.4 25.9 76 -7.1 19.3 -91 -3.583
18:14 1019 30.09 848 25.04 -3.4 25.8 76 -7.1 19.3 -91 -3.583
18:15 1019 30.09 848 25.04 -3.4 25.9 77 -6.9 19.6 -91 -3.583
18:16 1019 30.09 848 25.04 -3.3 26.1 76 -7 19.4 -91 -3.583
18:17 1019 30.09 848 25.04 -3.2 26.3 75 -7 19.3 -91 -3.583
18:18 1019 30.09 848 25.04 -3.2 26.3 75 -7 19.3 -91 -3.583
18:19 1019 30.09 848 25.04 -3.2 26.2 75 -7.1 19.2 -91 -3.583
18:20 1019 30.09 848 25.04 -3.4 25.9 75 -7.1 19.2 -91 -3.583
18:21 1019 30.09 848 25.04 -3.5 25.6 76 -7.2 19 -91.1 -3.587
18:22 1019 30.09 848 25.04 -3.7 25.3 76 -7.3 18.8 -91.1 -3.587
18:23 1018 30.06 848 25.04 -3.9 24.9 78 -7.2 19.1 -91.1 -3.587
18:24 1018 30.06 848 25.04 -4 24.9 79 -7.2 19.1 -91.1 -3.587
18:25 1018 30.06 848 25.04 -3.9 24.9 79 -7.1 19.2 -91.1 -3.587
18:26 1018 30.06 848 25.04 -3.8 25.2 78 -7 19.3 -91.1 -3.587
18:27 1018 30.06 847 25.01 -3.6 25.6 78 -6.9 19.6 -91.1 -3.587
18:28 1018 30.06 847 25.01 -3.3 26.1 76 -6.8 19.7 -91.1 -3.587
18:29 1018 30.06 847 25.01 -3.1 26.5 76 -6.7 19.9 -91.1 -3.587
18:30 1018 30.06 847 25.01 -2.9 26.8 75 -6.7 20 -91.1 -3.587
18:31 1018 30.06 847 25.01 -2.8 26.9 75 -6.7 20 -91.1 -3.587
18:32 1018 30.06 848 25.04 -2.8 27 75 -6.7 20 -91.2 -3.591
18:33 1018 30.06 848 25.04 -2.7 27.2 74 -6.7 19.9 -91.2 -3.591
18:34 1018 30.06 848 25.04 -2.6 27.4 73 -6.7 19.9 -91.2 -3.591
18:35 1019 30.09 848 25.04 -2.5 27.4 73 -6.8 19.8 -91.2 -3.591
18:36 1019 30.09 848 25.04 -2.4 27.6 72 -6.7 19.9 -91.2 -3.591
18:37 1019 30.09 848 25.04 -2.4 27.7 72 -6.8 19.7 -91.2 -3.591
18:38 1019 30.09 848 25.04 -2.4 27.7 72 -6.8 19.7 -91.2 -3.591
18:39 1019 30.09 848 25.04 -2.4 27.7 72 -6.8 19.7 -91.2 -3.591
18:40 1019 30.09 848 25.04 -2.4 27.7 72 -6.9 19.7 -91.2 -3.591
18:41 1019 30.09 848 25.04 -2.2 28 71 -6.8 19.8 -91.2 -3.591
18:42 1018 30.06 848 25.04 -2 28.4 70 -6.8 19.8 -91.2 -3.591
18:43 1018 30.06 848 25.04 -1.9 28.6 69 -6.8 19.7 -91.3 -3.594
18:44 1018 30.06 848 25.04 -1.7 28.9 68 -6.9 19.7 -91.3 -3.594
18:45 1018 30.06 848 25.04 -1.4 29.5 67 -6.7 20 -91.3 -3.594
18:46 1018 30.06 847 25.01 -1.3 29.7 68 -6.5 20.4 -91.3 -3.594
18:47 1018 30.06 847 25.01 -1.3 29.7 67 -6.5 20.3 -91.3 -3.594
18:48 1018 30.06 847 25.01 -1.3 29.6 68 -6.6 20.2 -91.3 -3.594
18:49 1018 30.06 847 25.01 -1.5 29.4 68 -6.6 20 -91.3 -3.594
18:50 1018 30.06 847 25.01 -1.6 29.1 68 -6.7 19.9 -91.3 -3.594
18:51 1018 30.06 847 25.01 -1.6 29.1 68 -6.8 19.8 -91.4 -3.598
18:52 1018 30.06 848 25.04 -1.6 29.2 68 -6.8 19.8 -91.4 -3.598
18:53 1018 30.06 848 25.04 -1.6 29.1 68 -6.7 19.9 -91.4 -3.598
18:54 1018 30.06 847 25.01 -1.6 29.1 68 -6.8 19.8 -91.4 -3.598
18:55 1018 30.06 847 25.01 -1.5 29.3 67 -6.8 19.7 -91.4 -3.598
18:56 1018 30.06 847 25.01 -1.4 29.5 67 -6.8 19.8 -91.4 -3.598
18:57 1018 30.06 847 25.01 -1.3 29.7 67 -6.7 19.9 -91.4 -3.598
18:58 1018 30.06 847 25.01 -1.3 29.6 67 -6.7 19.9 -91.4 -3.598
18:59 1018 30.06 847 25.01 -1.4 29.5 67 -6.7 20 -91.4 -3.598
19:00 1018 30.06 847 25.01 -1.5 29.3 68 -6.7 19.9 -91.4 -3.598
19:01 1018 30.06 847 25.01 -1.6 29.1 68 -6.7 20 -91.4 -3.598
19:02 1018 30.06 847 25.01 -1.6 29.1 69 -6.7 20 -91.4 -3.598
19:03 1018 30.06 847 25.01 -1.6 29 68 -6.7 19.9 -91.4 -3.598
19:04 1018 30.06 847 25.01 -1.6 29 69 -6.7 19.9 -91.4 -3.598
19:05 1018 30.06 847 25.01 -1.8 28.8 69 -6.7 19.9 -91.4 -3.598
19:06 1018 30.06 847 25.01 -1.9 28.6 70 -6.7 19.9 -91.4 -3.598
19:07 1018 30.06 847 25.01 -2 28.4 70 -6.8 19.8 -91.4 -3.598
19:08 1018 30.06 847 25.01 -2.1 28.3 70 -6.8 19.7 -91.4 -3.598
19:09 1018 30.06 847 25.01 -2.2 28 71 -6.8 19.7 -91.4 -3.598
19:10 1018 30.06 847 25.01 -2.2 28 71 -6.8 19.7 -91.4 -3.598
19:11 1018 30.06 847 25.01 -2.1 28.2 70 -6.8 19.7 -91.4 -3.598
19:12 1018 30.06 847 25.01 -2.1 28.2 71 -6.8 19.8 -91.4 -3.598
19:13 1018 30.06 847 25.01 -2 28.4 70 -6.7 19.9 -91.4 -3.598
19:14 1018 30.06 847 25.01 -1.9 28.6 70 -6.7 20 -91.4 -3.598
19:15 1018 30.06 847 25.01 -1.8 28.7 70 -6.6 20.1 -91.3 -3.594
19:16 1018 30.06 847 25.01 -1.9 28.5 71 -6.5 20.2 -91.3 -3.594
19:17 1018 30.06 847 25.01 -2 28.3 71 -6.6 20.1 -91.3 -3.594
19:18 1018 30.06 847 25.01 -2.1 28.3 71 -6.7 20 -91.3 -3.594
19:19 1018 30.06 847 25.01 -2 28.4 71 -6.6 20.1 -91.3 -3.594
19:20 1018 30.06 847 25.01 -2 28.4 71 -6.6 20.2 -91.3 -3.594
19:21 1018 30.06 847 25.01 -1.9 28.5 71 -6.6 20.2 -91.3 -3.594
19:22 1018 30.06 847 25.01 -1.8 28.7 70 -6.5 20.3 -91.3 -3.594
19:23 1018 30.06 847 25.01 -1.8 28.7 72 -6.3 20.6 -91.3 -3.594
19:24 1018 30.06 847 25.01 -1.9 28.6 72 -6.3 20.7 -91.3 -3.594
19:25 1018 30.06 847 25.01 -2 28.3 72 -6.4 20.6 -91.3 -3.594
19:26 1018 30.06 847 25.01 -2.1 28.3 72 -6.4 20.5 -91.3 -3.594
19:27 1018 30.06 847 25.01 -1.9 28.6 68 -7 19.4 -91.3 -3.594
19:28 1018 30.06 847 25.01 -1.3 29.6 68 -6.5 20.2 -91.3 -3.594
19:29 1018 30.06 847 25.01 -1.4 29.6 69 -6.3 20.6 -91.3 -3.594
19:30 1018 30.06 847 25.01 -1.5 29.3 69 -6.4 20.5 -91.3 -3.594
19:31 1018 30.06 847 25.01 -1.7 29 70 -6.4 20.4 -91.3 -3.594
19:32 1018 30.06 847 25.01 -1.9 28.5 71 -6.6 20.2 -91.3 -3.594
19:33 1018 30.06 847 25.01 -2.1 28.2 71 -6.7 20 -91.3 -3.594
19:34 1018 30.06 847 25.01 -2.3 27.9 72 -6.8 19.8 -91.3 -3.594
19:35 1018 30.06 847 25.01 -2.4 27.6 72 -6.7 19.9 -91.4 -3.598
19:36 1018 30.06 847 25.01 -2.3 27.8 71 -6.8 19.7 -91.4 -3.598
19:37 1018 30.06 847 25.01 -2.1 28.3 70 -6.8 19.7 -91.4 -3.598
19:38 1018 30.06 847 25.01 -1.9 28.6 70 -6.7 20 -91.4 -3.598
19:39 1018 30.06 847 25.01 -1.9 28.6 70 -6.7 19.9 -91.4 -3.598
19:40 1018 30.06 847 25.01 -1.9 28.7 70 -6.6 20 -91.4 -3.598
19:41 1018 30.06 847 25.01 -1.8 28.7 70 -6.6 20.1 -91.4 -3.598
19:42 1018 30.06 847 25.01 -1.9 28.5 70 -6.7 20 -91.4 -3.598
19:43 1018 30.06 847 25.01 -2 28.5 70 -6.7 19.9 -91.4 -3.598
19:44 1018 30.06 847 25.01 -1.9 28.5 70 -6.8 19.8 -91.4 -3.598
19:45 1018 30.06 847 25.01 -1.9 28.6 70 -6.7 20 -91.4 -3.598
19:46 1018 30.06 847 25.01 -2 28.3 70 -6.8 19.8 -91.4 -3.598
19:47 1018 30.06 847 25.01 -1.8 28.8 69 -6.8 19.7 -91.4 -3.598
19:48 1018 30.06 847 25.01 -1.5 29.3 68 -6.7 20 -91.4 -3.598
19:49 1018 30.06 847 25.01 -1.3 29.6 68 -6.6 20.2 -91.4 -3.598
19:50 1018 30.06 847 25.01 -1.4 29.6 68 -6.5 20.3 -91.4 -3.598
19:51 1018 30.06 847 25.01 -1.5 29.2 67 -6.9 19.6 -91.4 -3.598
19:52 1018 30.06 847 25.01 -1.5 29.4 67 -6.8 19.8 -91.4 -3.598
19:53 1018 30.06 847 25.01 -1.2 29.8 65 -7 19.4 -91.4 -3.598
19:54 1018 30.06 847 25.01 -0.6 30.9 62 -7 19.4 -91.4 -3.598
19:55 1018 30.06 847 25.01 -0.2 31.7 61 -6.8 19.8 -91.4 -3.598
19:56 1018 30.06 847 25.01 0 32.1 62 -6.5 20.3 -91.4 -3.598
19:57 1018 30.06 847 25.01 -0 31.9 61 -6.7 20 -91.4 -3.598
19:58 1018 30.06 847 25.01 -0 31.9 60 -6.9 19.6 -91.5 -3.602
19:59 1018 30.06 847 25.01 0.1 32.3 59 -6.9 19.5 -91.5 -3.602
20:00 1018 30.06 847 25.01 0.3 32.5 60 -6.6 20.1 -91.5 -3.602
20:01 1018 30.06 847 25.01 0.1 32.2 61 -6.6 20.2 -91.5 -3.602
20:02 1018 30.06 847 25.01 0 32 60 -6.8 19.8 -91.5 -3.602
20:03 1018 30.06 847 25.01 0.1 32.2 60 -6.8 19.7 -91.5 -3.602
20:04 1018 30.06 847 25.01 0.3 32.5 60 -6.6 20.2 -91.5 -3.602
20:05 1018 30.06 847 25.01 0.1 32.2 60 -6.7 19.9 -91.5 -3.602
20:06 1018 30.06 847 25.01 0 32 61 -6.6 20.1 -91.5 -3.602
20:07 1018 30.06 847 25.01 -0 32 60 -7 19.4 -91.6 -3.606
20:08 1018 30.06 847 25.01 0.2 32.3 59 -6.9 19.6 -91.6 -3.606
20:09 1018 30.06 847 25.01 0.3 32.5 59 -6.9 19.5 -91.6 -3.606
20:10 1018 30.06 847 25.01 0.4 32.7 59 -6.7 19.9 -91.6 -3.606
20:11 1018 30.06 847 25.01 0.2 32.4 59 -6.8 19.8 -91.6 -3.606
20:12 1018 30.06 847 25.01 0.2 32.3 60 -6.7 19.9 -91.6 -3.606
20:13 1018 30.06 847 25.01 0.1 32.1 60 -6.7 19.9 -91.6 -3.606
20:14 1018 30.06 847 25.01 0 32 60 -6.8 19.8 -91.6 -3.606
20:15 1018 30.06 847 25.01 0.1 32.2 59 -7 19.5 -91.6 -3.606
20:16 1018 30.06 847 25.01 0.4 32.7 57 -7.1 19.1 -91.6 -3.606
20:17 1018 30.06 847 25.01 0.8 33.4 56 -7.1 19.2 -91.6 -3.606
20:18 1018 30.06 847 25.01 1 33.9 55 -7.1 19.2 -91.6 -3.606
20:19 1018 30.06 847 25.01 1.3 34.3 54 -7 19.4 -91.6 -3.606
20:20 1018 30.06 847 25.01 1.2 34.2 54 -7 19.5 -91.6 -3.606
20:21 1018 30.06 847 25.01 0.9 33.6 57 -6.7 19.9 -91.6 -3.606
20:22 1018 30.06 847 25.01 0.4 32.7 58 -6.9 19.6 -91.6 -3.606
20:23 1018 30.06 847 25.01 -0 31.9 59 -7.1 19.3 -91.6 -3.606
20:24 1018 30.06 847 25.01 -0.3 31.4 60 -7.1 19.3 -91.6 -3.606
20:25 1018 30.06 847 25.01 -0.6 31 61 -7.1 19.1 -91.6 -3.606
20:26 1018 30.06 847 25.01 -0.6 30.9 61 -7.2 19 -91.6 -3.606
20:27 1018 30.06 847 25.01 -0.5 31 60 -7.4 18.7 -91.6 -3.606
20:28 1018 30.06 847 25.01 -0.7 30.8 60 -7.4 18.7 -91.6 -3.606
20:29 1018 30.06 847 25.01 -0.7 30.7 60 -7.5 18.5 -91.6 -3.606
20:30 1018 30.06 847 25.01 -0.7 30.7 60 -7.5 18.4 -91.6 -3.606
20:31 1018 30.06 847 25.01 -0.7 30.7 60 -7.5 18.5 -91.6 -3.606
20:32 1018 30.06 847 25.01 -1 30.2 61 -7.6 18.3 -91.6 -3.606
20:33 1018 30.06 847 25.01 -1.3 29.7 61 -7.8 18 -91.6 -3.606
20:34 1018 30.06 847 25.01 -1.6 29.2 62 -8 17.6 -91.6 -3.606
20:35 1018 30.06 847 25.01 -1.5 29.3 60 -8.2 17.2 -91.6 -3.606
20:36 1018 30.06 847 25.01 -1.4 29.5 60 -8.2 17.3 -91.6 -3.606
20:37 1018 30.06 847 25.01 -1.3 29.7 60 -8 17.6 -91.6 -3.606
20:38 1018 30.06 847 25.01 -1.3 29.7 60 -8 17.6 -91.6 -3.606
20:39 1018 30.06 847 25.01 -1.4 29.5 60 -8.2 17.2 -91.6 -3.606
20:40 1018 30.06 847 25.01 -1.6 29.2 60 -8.3 17.1 -91.6 -3.606
20:41 1018 30.06 847 25.01 -1.6 29.1 59 -8.6 16.6 -91.6 -3.606
20:42 1018 30.06 847 25.01 -1.7 29 59 -8.7 16.4 -91.6 -3.606
20:43 1018 30.06 847 25.01 -1.9 28.6 59 -8.9 16 -91.6 -3.606
20:44 1018 30.06 847 25.01 -1.9 28.5 58 -9.1 15.7 -91.7 -3.61
20:45 1018 30.06 847 25.01 -2.1 28.3 58 -9.3 15.3 -91.7 -3.61
20:46 1018 30.06 847 25.01 -2 28.5 58 -9.3 15.3 -91.7 -3.61
20:47 1018 30.06 847 25.01 -1.8 28.8 56 -9.4 15.1 -91.7 -3.61
20:48 1018 30.06 847 25.01 -1.5 29.4 54 -9.5 14.9 -91.7 -3.61
20:49 1018 30.06 847 25.01 -1.1 30 54 -9.3 15.3 -91.7 -3.61
20:50 1018 30.06 847 25.01 -0.8 30.5 54 -9.1 15.6 -91.7 -3.61
20:51 1018 30.06 847 25.01 -0.7 30.7 53 -9 15.7 -91.7 -3.61
20:52 1017 30.03 847 25.01 -0.4 31.2 49 -9.8 14.4 -91.8 -3.614
20:53 1017 30.03 847 25.01 -0 31.9 49 -9.5 14.9 -91.8 -3.614
20:54 1017 30.03 847 25.01 0.2 32.4 49 -9.2 15.5 -91.8 -3.614
20:55 1017 30.03 847 25.01 0.2 32.3 51 -8.7 16.3 -91.8 -3.614
20:56 1017 30.03 847 25.01 0 32 52 -8.6 16.5 -91.8 -3.614
20:57 1017 30.03 847 25.01 -0.2 31.6 54 -8.5 16.7 -91.8 -3.614
20:58 1017 30.03 847 25.01 -0.2 31.6 52 -8.8 16.1 -91.8 -3.614
20:59 1017 30.03 847 25.01 0.1 32.1 52 -8.8 16.2 -91.9 -3.618
21:00 1017 30.03 847 25.01 0.5 32.9 50 -8.7 16.3 -91.9 -3.618
21:01 1017 30.03 847 25.01 0.8 33.4 50 -8.5 16.7 -91.9 -3.618
21:02 1017 30.03 847 25.01 1 33.9 47 -9 15.7 -91.9 -3.618
21:03 1017 30.03 847 25.01 1.3 34.4 46 -9.1 15.6 -91.9 -3.618
21:04 1017 30.03 847 25.01 1.6 34.9 45 -9.1 15.7 -91.9 -3.618
21:05 1017 30.03 847 25.01 1.8 35.3 45 -8.9 16 -91.9 -3.618
21:06 1017 30.03 847 25.01 2.1 35.9 43 -9.1 15.7 -91.9 -3.618
21:07 1017 30.03 847 25.01 2.3 36.1 41 -9.6 14.8 -91.9 -3.618
21:08 1017 30.03 847 25.01 2.7 36.8 40 -9.6 14.8 -91.9 -3.618
21:09 1017 30.03 846 24.98 3 37.4 37 -10.2 13.7 -91.9 -3.618
21:10 1017 30.03 846 24.98 3.4 38 37 -9.9 14.2 -92 -3.622
21:11 1017 30.03 847 25.01 3.6 38.5 38 -9.5 14.9 -92 -3.622
21:12 1017 30.03 847 25.01 3.7 38.7 39 -8.8 16.1 -92 -3.622
21:13 1017 30.03 847 25.01 3.8 38.8 38 -9.2 15.4 -92 -3.622
21:14 1017 30.03 847 25.01 3.8 38.9 37 -9.7 14.5 -92 -3.622
21:15 1017 30.03 847 25.01 3.9 39.1 38 -9.2 15.4 -92 -3.622
21:16 1017 30.03 846 24.98 4.2 39.6 33 -10.7 12.8 -92 -3.622
21:17 1017 30.03 847 25.01 4.6 40.2 33 -10.2 13.6 -92 -3.622
21:18 1017 30.03 847 25.01 4.7 40.4 35 -9.5 14.9 -92 -3.622
21:19 1017 30.03 847 25.01 4.6 40.3 33 -10.4 13.2 -92 -3.622
21:20 1017 30.03 847 25.01 4.7 40.4 35 -9.6 14.7 -92 -3.622
21:21 1017 30.03 847 25.01 4.6 40.3 36 -9.4 15.2 -92 -3.622
21:22 1017 30.03 847 25.01 4.5 40 36 -9.2 15.5 -92 -3.622
21:23 1017 30.03 847 25.01 4.4 39.9 37 -9.1 15.7 -92 -3.622
21:24 1017 30.03 847 25.01 4.4 39.9 36 -9.5 14.9 -92 -3.622
21:25 1017 30.03 847 25.01 4.4 39.9 34 -10 14 -92 -3.622
21:26 1017 30.03 847 25.01 4.5 40.1 34 -10 14.1 -92 -3.622
21:27 1017 30.03 847 25.01 4.5 40.1 36 -9.2 15.5 -92 -3.622
21:28 1017 30.03 847 25.01 4.5 40 33 -10.4 13.3 -91.9 -3.618
21:29 1017 30.03 847 25.01 4.6 40.4 32 -10.6 12.9 -91.9 -3.618
21:30 1017 30.03 847 25.01 4.7 40.5 36 -9.2 15.4 -91.9 -3.618
21:31 1017 30.03 847 25.01 4.6 40.3 36 -9.3 15.3 -91.9 -3.618
21:32 1017 30.03 847 25.01 4.5 40.1 36 -9.3 15.2 -91.9 -3.618
21:33 1017 30.03 847 25.01 4.5 40 34 -10 14.1 -91.9 -3.618
21:34 1017 30.03 847 25.01 4.5 40.1 36 -9.2 15.4 -91.9 -3.618
21:35 1017 30.03 847 25.01 4.4 40 33 -10.6 12.8 -91.9 -3.618
21:36 1017 30.03 847 25.01 4.5 40 34 -10.2 13.7 -91.9 -3.618
21:37 1017 30.03 847 25.01 4.4 39.8 34 -10.2 13.6 -91.9 -3.618
21:38 1017 30.03 847 25.01 4.2 39.6 33 -10.8 12.5 -91.9 -3.618
21:39 1017 30.03 847 25.01 4.4 39.9 35 -10 14.1 -91.9 -3.618
21:40 1017 30.03 847 25.01 4.4 40 33 -10.3 13.5 -91.9 -3.618
21:41 1017 30.03 847 25.01 4.4 39.9 35 -9.6 14.7 -91.9 -3.618
21:42 1018 30.06 847 25.01 4.3 39.7 35 -9.8 14.3 -91.9 -3.618
21:43 1017 30.03 847 25.01 4.1 39.5 33 -10.8 12.6 -91.9 -3.618
21:44 1018 30.06 847 25.01 4.3 39.7 36 -9.5 15 -91.9 -3.618
21:45 1018 30.06 847 25.01 4.2 39.5 36 -9.6 14.7 -91.8 -3.614
21:46 1018 30.06 847 25.01 4 39.3 36 -9.6 14.8 -91.8 -3.614
21:47 1018 30.06 847 25.01 4 39.2 36 -9.8 14.4 -91.8 -3.614
21:48 1018 30.06 847 25.01 4 39.2 35 -10.2 13.7 -91.8 -3.614
21:49 1018 30.06 847 25.01 4.1 39.3 37 -9.5 14.9 -91.8 -3.614
21:50 1018 30.06 847 25.01 4.1 39.4 37 -9.4 15 -91.8 -3.614
21:51 1018 30.06 847 25.01 4 39.3 38 -9.2 15.4 -91.8 -3.614
21:52 1018 30.06 847 25.01 3.9 39 36 -9.9 14.2 -91.8 -3.614
21:53 1018 30.06 847 25.01 3.8 38.9 35 -10.1 13.8 -91.8 -3.614
21:54 1018 30.06 847 25.01 3.9 39 38 -9.1 15.6 -91.8 -3.614
21:55 1018 30.06 847 25.01 3.8 38.9 38 -9.3 15.3 -91.8 -3.614
21:56 1018 30.06 847 25.01 3.8 38.8 40 -8.6 16.5 -91.8 -3.614
21:57 1018 30.06 847 25.01 3.7 38.6 37 -9.9 14.2 -91.7 -3.61
21:58 1018 30.06 847 25.01 3.7 38.6 35 -10.3 13.5 -91.7 -3.61
21:59 1018 30.06 847 25.01 3.8 38.8 35 -10.3 13.5 -91.7 -3.61
22:00 1018 30.06 847 25.01 3.9 39.1 35 -10.1 13.9 -91.8 -3.614
22:01 1018 30.06 847 25.01 4 39.2 36 -9.6 14.7 -91.8 -3.614
22:02 1018 30.06 847 25.01 4 39.2 36 -9.8 14.4 -91.8 -3.614
22:03 1018 30.06 847 25.01 3.9 39 37 -9.5 14.9 -91.8 -3.614
22:04 1018 30.06 847 25.01 3.9 39 38 -9.2 15.5 -91.8 -3.614
22:05 1018 30.06 847 25.01 3.8 38.8 37 -9.5 14.8 -91.8 -3.614
22:06 1018 30.06 847 25.01 3.8 38.8 37 -9.7 14.6 -91.8 -3.614
22:07 1018 30.06 847 25.01 3.8 38.9 37 -9.4 15 -91.7 -3.61
22:08 1018 30.06 847 25.01 3.8 38.8 38 -9.3 15.2 -91.7 -3.61
22:09 1018 30.06 847 25.01 3.7 38.7 37 -9.5 14.9 -91.7 -3.61
22:10 1018 30.06 847 25.01 3.6 38.6 40 -8.8 16.2 -91.7 -3.61
22:11 1018 30.06 847 25.01 3.5 38.3 40 -8.8 16.2 -91.7 -3.61
22:12 1018 30.06 847 25.01 3.4 38.2 37 -10 14 -91.7 -3.61
22:13 1018 30.06 847 25.01 3.5 38.2 38 -9.4 15.1 -91.7 -3.61
22:14 1018 30.06 847 25.01 3.5 38.2 41 -8.6 16.6 -91.7 -3.61
22:15 1018 30.06 847 25.01 3.4 38.1 39 -9.4 15 -91.7 -3.61
22:16 1018 30.06 847 25.01 3.4 38.2 40 -9 15.8 -91.7 -3.61
22:17 1018 30.06 847 25.01 3.4 38.2 40 -9.1 15.6 -91.7 -3.61
22:18 1018 30.06 847 25.01 3.5 38.2 38 -9.5 15 -91.7 -3.61
22:19 1018 30.06 847 25.01 3.6 38.4 39 -9 15.8 -91.7 -3.61
22:20 1018 30.06 847 25.01 3.5 38.3 41 -8.4 16.9 -91.7 -3.61
22:21 1018 30.06 848 25.04 3.4 38.1 40 -8.8 16.1 -91.7 -3.61
22:22 1018 30.06 847 25.01 3.3 38 39 -9.5 14.9 -91.7 -3.61
22:23 1018 30.06 848 25.04 3.4 38.1 37 -9.9 14.2 -91.7 -3.61
22:24 1018 30.06 848 25.04 3.5 38.3 40 -8.9 15.9 -91.7 -3.61
22:25 1018 30.06 848 25.04 3.5 38.4 38 -9.5 15 -91.7 -3.61
22:26 1018 30.06 848 25.04 3.5 38.4 38 -9.5 15 -91.7 -3.61
22:27 1018 30.06 848 25.04 3.5 38.3 39 -9.3 15.3 -91.7 -3.61
22:28 1018 30.06 848 25.04 3.4 38.1 37 -10 14 -91.7 -3.61
22:29 1018 30.06 848 25.04 3.4 38.2 39 -9.3 15.3 -91.7 -3.61
22:30 1018 30.06 847 25.01 3.4 38.1 39 -9.3 15.3 -91.7 -3.61
22:31 1018 30.06 847 25.01 3.4 38.1 39 -9.4 15.2 -91.7 -3.61
22:32 1018 30.06 847 25.01 3.3 38 38 -9.8 14.4 -91.7 -3.61
22:33 1018 30.06 847 25.01 3.4 38.1 39 -9.1 15.5 -91.7 -3.61
22:34 1018 30.06 847 25.01 3.4 38.1 39 -9.4 15 -91.7 -3.61
22:35 1018 30.06 847 25.01 3.3 38 39 -9.5 15 -91.7 -3.61
22:36 1018 30.06 847 25.01 3.3 37.9 39 -9.5 14.9 -91.7 -3.61
22:37 1018 30.06 847 25.01 3.2 37.8 39 -9.3 15.2 -91.7 -3.61
22:38 1018 30.06 847 25.01 3.2 37.7 40 -9.3 15.3 -91.7 -3.61
22:39 1018 30.06 847 25.01 3.1 37.6 40 -9.1 15.5 -91.7 -3.61
22:40 1018 30.06 847 25.01 3.1 37.5 42 -8.8 16.2 -91.7 -3.61
22:41 1018 30.06 847 25.01 3.1 37.5 40 -9.2 15.5 -91.7 -3.61
22:42 1018 30.06 847 25.01 3.1 37.6 40 -9.2 15.4 -91.6 -3.606
22:43 1018 30.06 847 25.01 3.1 37.6 40 -9.1 15.6 -91.7 -3.61
22:44 1018 30.06 847 25.01 3.1 37.5 42 -8.7 16.4 -91.7 -3.61
22:45 1018 30.06 847 25.01 3 37.3 41 -8.9 16 -91.6 -3.606
22:46 1018 30.06 847 25.01 3 37.3 40 -9.4 15.1 -91.6 -3.606
22:47 1018 30.06 847 25.01 3 37.4 39 -9.5 14.9 -91.6 -3.606
22:48 1018 30.06 847 25.01 3 37.5 41 -9 15.9 -91.6 -3.606
22:49 1018 30.06 847 25.01 3 37.4 41 -9.1 15.6 -91.6 -3.606
22:50 1018 30.06 847 25.01 3 37.4 39 -9.6 14.7 -91.6 -3.606
22:51 1018 30.06 847 25.01 3 37.4 42 -8.5 16.6 -91.6 -3.606
22:52 1018 30.06 847 25.01 3 37.4 41 -9 15.7 -91.6 -3.606
22:53 1018 30.06 847 25.01 3 37.4 42 -8.7 16.3 -91.6 -3.606
22:54 1018 30.06 847 25.01 3 37.3 42 -8.7 16.3 -91.6 -3.606
22:55 1018 30.06 847 25.01 3 37.4 42 -8.8 16.2 -91.6 -3.606
22:56 1018 30.06 847 25.01 3 37.4 42 -8.6 16.5 -91.6 -3.606
22:57 1018 30.06 847 25.01 3 37.4 41 -9 15.8 -91.6 -3.606
22:58 1018 30.06 847 25.01 3.1 37.5 40 -9.2 15.5 -91.6 -3.606
22:59 1018 30.06 847 25.01 3.2 37.8 40 -9.1 15.5 -91.6 -3.606
23:00 1018 30.06 847 25.01 3.3 37.9 40 -9.1 15.6 -91.6 -3.606
23:01 1018 30.06 847 25.01 3.3 38 39 -9.3 15.2 -91.6 -3.606
23:02 1018 30.06 847 25.01 3.4 38.1 39 -9.3 15.2 -91.6 -3.606
23:03 1018 30.06 847 25.01 3.4 38.2 38 -9.5 14.8 -91.6 -3.606
23:04 1018 30.06 847 25.01 3.4 38.1 39 -9.3 15.2 -91.6 -3.606
23:05 1018 30.06 847 25.01 3.4 38.1 36 -10.2 13.7 -91.6 -3.606
23:06 1018 30.06 847 25.01 3.5 38.4 36 -10.1 13.8 -91.6 -3.606
23:07 1018 30.06 847 25.01 3.5 38.3 39 -9.2 15.4 -91.6 -3.606
23:08 1018 30.06 847 25.01 3.5 38.3 36 -10.2 13.7 -91.6 -3.606
23:09 1018 30.06 847 25.01 3.5 38.4 40 -8.9 16 -91.6 -3.606
23:10 1018 30.06 847 25.01 3.5 38.2 39 -9.1 15.6 -91.6 -3.606
23:11 1018 30.06 847 25.01 3.4 38.1 40 -9.1 15.7 -91.6 -3.606
23:12 1018 30.06 847 25.01 3.3 37.9 40 -9.2 15.5 -91.6 -3.606
23:13 1018 30.06 847 25.01 3.2 37.8 39 -9.4 15.1 -91.6 -3.606
23:14 1018 30.06 847 25.01 3.2 37.7 41 -8.9 16 -91.6 -3.606
23:15 1018 30.06 847 25.01 3.1 37.6 38 -10 14.1 -91.6 -3.606
23:16 1018 30.06 847 25.01 3.1 37.6 41 -9 15.9 -91.6 -3.606
23:17 1018 30.06 847 25.01 3.1 37.5 39 -9.7 14.5 -91.6 -3.606
23:18 1018 30.06 847 25.01 3 37.5 39 -9.5 14.9 -91.6 -3.606
23:19 1018 30.06 847 25.01 3 37.5 40 -9.3 15.2 -91.6 -3.606
23:20 1018 30.06 847 25.01 3 37.4 41 -9.1 15.5 -91.6 -3.606
23:21 1018 30.06 847 25.01 2.9 37.2 40 -9.4 15.2 -91.6 -3.606
23:22 1018 30.06 847 25.01 2.8 37.1 41 -9.1 15.5 -91.6 -3.606
23:23 1018 30.06 847 25.01 2.8 37 39 -9.8 14.3 -91.6 -3.606
23:24 1018 30.06 847 25.01 2.8 37.1 40 -9.3 15.2 -91.6 -3.606
23:25 1018 30.06 847 25.01 2.9 37.1 38 -10.2 13.7 -91.6 -3.606
23:26 1018 30.06 847 25.01 3 37.4 38 -9.9 14.2 -91.6 -3.606
23:27 1018 30.06 847 25.01 3 37.5 40 -9.2 15.5 -91.6 -3.606
23:28 1018 30.06 847 25.01 2.9 37.2 42 -8.9 15.9 -91.6 -3.606
23:29 1018 30.06 847 25.01 2.8 37.1 38 -10 14 -91.6 -3.606
23:30 1018 30.06 847 25.01 2.9 37.2 37 -10.3 13.5 -91.6 -3.606
23:31 1018 30.06 847 25.01 3.1 37.6 38 -9.9 14.2 -91.6 -3.606
23:32 1018 30.06 847 25.01 3.1 37.6 39 -9.6 14.7 -91.6 -3.606
23:33 1018 30.06 847 25.01 3 37.3 43 -8.6 16.6 -91.6 -3.606
23:34 1018 30.06 847 25.01 2.8 37.1 40 -9.5 15 -91.6 -3.606
23:35 1018 30.06 847 25.01 2.9 37.1 42 -8.9 16 -91.6 -3.606
23:36 1018 30.06 847 25.01 2.8 37.1 40 -9.6 14.7 -91.6 -3.606
23:37 1018 30.06 847 25.01 2.8 37.1 39 -9.9 14.1 -91.6 -3.606
23:38 1018 30.06 847 25.01 3 37.4 39 -9.5 14.8 -91.6 -3.606
23:39 1018 30.06 847 25.01 2.9 37.2 42 -8.8 16.1 -91.6 -3.606
23:40 1018 30.06 847 25.01 2.8 37.1 39 -9.7 14.6 -91.6 -3.606
23:41 1018 30.06 847 25.01 2.8 37.1 42 -8.9 15.9 -91.6 -3.606
23:42 1018 30.06 847 25.01 2.8 37 40 -9.4 15.1 -91.6 -3.606
23:43 1018 30.06 847 25.01 2.7 36.9 43 -8.7 16.4 -91.6 -3.606
23:44 1018 30.06 847 25.01 2.6 36.7 41 -9.4 15.1 -91.6 -3.606
23:45 1018 30.06 847 25.01 2.6 36.6 40 -9.6 14.6 -91.6 -3.606
23:46 1018 30.06 847 25.01 2.6 36.7 40 -9.6 14.6 -91.6 -3.606
23:47 1018 30.06 847 25.01 2.7 36.8 41 -9.3 15.2 -91.6 -3.606
23:48 1018 30.06 847 25.01 2.7 36.8 41 -9.3 15.2 -91.6 -3.606
23:49 1018 30.06 847 25.01 2.8 37.1 41 -9.2 15.5 -91.6 -3.606
23:50 1018 30.06 847 25.01 2.8 37 41 -9.3 15.3 -91.6 -3.606
23:51 1018 30.06 847 25.01 2.7 36.9 40 -9.7 14.6 -91.6 -3.606
23:52 1018 30.06 847 25.01 2.7 36.9 40 -9.6 14.7 -91.6 -3.606
23:53 1018 30.06 847 25.01 2.8 37 40 -9.5 14.9 -91.6 -3.606
23:54 1018 30.06 847 25.01 2.8 37 41 -9.3 15.3 -91.6 -3.606
23:55 1018 30.06 847 25.01 2.7 36.9 39 -9.9 14.3 -91.6 -3.606
23:56 1018 30.06 847 25.01 2.8 37.1 40 -9.5 15 -91.6 -3.606
23:57 1018 30.06 847 25.01 2.9 37.3 40 -9.5 14.9 -91.6 -3.606
23:58 1018 30.06 847 25.01 2.9 37.1 42 -8.9 16 -91.6 -3.606
23:59 1018 30.06 847 25.01 2.7 36.9 39 -9.8 14.4 -91.6 -3.606
24:00 1018 30.06 847 25.01 2.8 37 41 -9.1 15.6 -91.6 -3.606